<?xml version="1.0" encoding="UTF-8" standalone="no" ?>
<gpx xmlns="http://www.topografix.com/GPX/1/1" xmlns:xsi="http://www.w3.org/2001/XMLSchema-instance" xsi:schemaLocation="http://www.topografix.com/GPX/1/1 http://www.topografix.com/GPX/1/1/gpx.xsd" version="1.1" creator="VisuGPX - https://www.visugpx.com">
  <metadata>
    <name>Activité Randonnée TwoNav</name>
    <desc><![CDATA[2022-07-11_203028.trk]]></desc>
  </metadata>
  <trk>
    <name><![CDATA[Activité Randonnée TwoNav_1]]></name>
    <trkseg>
      <trkpt lat="49.19084" lon="7.29352">
        <ele>315.9</ele>
        <time>2022-07-11T18:30:28Z</time>
      </trkpt>
      <trkpt lat="49.19083" lon="7.29353">
        <ele>315.9</ele>
        <time>2022-07-11T18:30:29Z</time>
      </trkpt>
      <trkpt lat="49.19078" lon="7.29341">
        <ele>316</ele>
        <time>2022-07-11T18:30:43Z</time>
      </trkpt>
      <trkpt lat="49.1907" lon="7.29334">
        <ele>316</ele>
        <time>2022-07-11T18:30:50Z</time>
      </trkpt>
      <trkpt lat="49.19061" lon="7.2933">
        <ele>315.9</ele>
        <time>2022-07-11T18:30:57Z</time>
      </trkpt>
      <trkpt lat="49.19052" lon="7.29333">
        <ele>315.6</ele>
        <time>2022-07-11T18:31:05Z</time>
      </trkpt>
      <trkpt lat="49.19043" lon="7.2934">
        <ele>315.4</ele>
        <time>2022-07-11T18:31:13Z</time>
      </trkpt>
      <trkpt lat="49.19034" lon="7.29345">
        <ele>315.2</ele>
        <time>2022-07-11T18:31:20Z</time>
      </trkpt>
      <trkpt lat="49.19024" lon="7.29346">
        <ele>315</ele>
        <time>2022-07-11T18:31:28Z</time>
      </trkpt>
      <trkpt lat="49.19015" lon="7.29344">
        <ele>314.9</ele>
        <time>2022-07-11T18:31:37Z</time>
      </trkpt>
      <trkpt lat="49.19005" lon="7.29342">
        <ele>314.7</ele>
        <time>2022-07-11T18:31:44Z</time>
      </trkpt>
      <trkpt lat="49.18996" lon="7.2934">
        <ele>314.6</ele>
        <time>2022-07-11T18:31:51Z</time>
      </trkpt>
      <trkpt lat="49.18987" lon="7.29336">
        <ele>314.4</ele>
        <time>2022-07-11T18:31:59Z</time>
      </trkpt>
      <trkpt lat="49.18977" lon="7.29332">
        <ele>314.3</ele>
        <time>2022-07-11T18:32:05Z</time>
      </trkpt>
      <trkpt lat="49.18968" lon="7.29328">
        <ele>314.1</ele>
        <time>2022-07-11T18:32:12Z</time>
      </trkpt>
      <trkpt lat="49.18959" lon="7.29323">
        <ele>314</ele>
        <time>2022-07-11T18:32:19Z</time>
      </trkpt>
      <trkpt lat="49.1895" lon="7.2932">
        <ele>313.8</ele>
        <time>2022-07-11T18:32:26Z</time>
      </trkpt>
      <trkpt lat="49.18942" lon="7.29315">
        <ele>313.7</ele>
        <time>2022-07-11T18:32:35Z</time>
      </trkpt>
      <trkpt lat="49.18932" lon="7.29311">
        <ele>313.6</ele>
        <time>2022-07-11T18:32:44Z</time>
      </trkpt>
      <trkpt lat="49.18922" lon="7.29309">
        <ele>313.5</ele>
        <time>2022-07-11T18:32:51Z</time>
      </trkpt>
      <trkpt lat="49.18914" lon="7.293">
        <ele>313.3</ele>
        <time>2022-07-11T18:32:59Z</time>
      </trkpt>
      <trkpt lat="49.18906" lon="7.29295">
        <ele>313.2</ele>
        <time>2022-07-11T18:33:06Z</time>
      </trkpt>
      <trkpt lat="49.18905" lon="7.29286">
        <ele>313.6</ele>
        <time>2022-07-11T18:33:15Z</time>
      </trkpt>
      <trkpt lat="49.18905" lon="7.29286">
        <ele>313.6</ele>
        <time>2022-07-11T18:33:16Z</time>
      </trkpt>
      <trkpt lat="49.18905" lon="7.29271">
        <ele>313.9</ele>
        <time>2022-07-11T18:33:24Z</time>
      </trkpt>
      <trkpt lat="49.18907" lon="7.29258">
        <ele>314.3</ele>
        <time>2022-07-11T18:33:32Z</time>
      </trkpt>
      <trkpt lat="49.18909" lon="7.29243">
        <ele>314.6</ele>
        <time>2022-07-11T18:33:41Z</time>
      </trkpt>
      <trkpt lat="49.1891" lon="7.29229">
        <ele>314.9</ele>
        <time>2022-07-11T18:33:48Z</time>
      </trkpt>
      <trkpt lat="49.18913" lon="7.29215">
        <ele>315.3</ele>
        <time>2022-07-11T18:33:57Z</time>
      </trkpt>
      <trkpt lat="49.18914" lon="7.29214">
        <ele>315.3</ele>
        <time>2022-07-11T18:34:00Z</time>
      </trkpt>
      <trkpt lat="49.18914" lon="7.29214">
        <ele>315.3</ele>
        <time>2022-07-11T18:34:01Z</time>
      </trkpt>
      <trkpt lat="49.18914" lon="7.29211">
        <ele>315.4</ele>
        <time>2022-07-11T18:34:08Z</time>
      </trkpt>
      <trkpt lat="49.18914" lon="7.2921">
        <ele>315.4</ele>
        <time>2022-07-11T18:34:09Z</time>
      </trkpt>
      <trkpt lat="49.18916" lon="7.29197">
        <ele>315.7</ele>
        <time>2022-07-11T18:34:17Z</time>
      </trkpt>
      <trkpt lat="49.18918" lon="7.29183">
        <ele>316.1</ele>
        <time>2022-07-11T18:34:25Z</time>
      </trkpt>
      <trkpt lat="49.18922" lon="7.29168">
        <ele>316.4</ele>
        <time>2022-07-11T18:34:32Z</time>
      </trkpt>
      <trkpt lat="49.18925" lon="7.29154">
        <ele>316.8</ele>
        <time>2022-07-11T18:34:41Z</time>
      </trkpt>
      <trkpt lat="49.18922" lon="7.2914">
        <ele>317.1</ele>
        <time>2022-07-11T18:34:55Z</time>
      </trkpt>
      <trkpt lat="49.18922" lon="7.29126">
        <ele>317.5</ele>
        <time>2022-07-11T18:35:08Z</time>
      </trkpt>
      <trkpt lat="49.18921" lon="7.29111">
        <ele>317.8</ele>
        <time>2022-07-11T18:35:19Z</time>
      </trkpt>
      <trkpt lat="49.18925" lon="7.29098">
        <ele>318.2</ele>
        <time>2022-07-11T18:35:28Z</time>
      </trkpt>
      <trkpt lat="49.18928" lon="7.29083">
        <ele>318.5</ele>
        <time>2022-07-11T18:35:35Z</time>
      </trkpt>
      <trkpt lat="49.1893" lon="7.29068">
        <ele>318.9</ele>
        <time>2022-07-11T18:35:43Z</time>
      </trkpt>
      <trkpt lat="49.18933" lon="7.29053">
        <ele>319.3</ele>
        <time>2022-07-11T18:35:52Z</time>
      </trkpt>
      <trkpt lat="49.18934" lon="7.29038">
        <ele>319.6</ele>
        <time>2022-07-11T18:36:00Z</time>
      </trkpt>
      <trkpt lat="49.18937" lon="7.29025">
        <ele>319.9</ele>
        <time>2022-07-11T18:36:07Z</time>
      </trkpt>
      <trkpt lat="49.18939" lon="7.29011">
        <ele>320.3</ele>
        <time>2022-07-11T18:36:15Z</time>
      </trkpt>
      <trkpt lat="49.18942" lon="7.28995">
        <ele>320.6</ele>
        <time>2022-07-11T18:36:23Z</time>
      </trkpt>
      <trkpt lat="49.18943" lon="7.28982">
        <ele>321</ele>
        <time>2022-07-11T18:36:31Z</time>
      </trkpt>
      <trkpt lat="49.18945" lon="7.28968">
        <ele>321.3</ele>
        <time>2022-07-11T18:36:48Z</time>
      </trkpt>
      <trkpt lat="49.1895" lon="7.28955">
        <ele>321.6</ele>
        <time>2022-07-11T18:36:55Z</time>
      </trkpt>
      <trkpt lat="49.18956" lon="7.28943">
        <ele>322</ele>
        <time>2022-07-11T18:37:01Z</time>
      </trkpt>
      <trkpt lat="49.18958" lon="7.28941">
        <ele>322.1</ele>
        <time>2022-07-11T18:37:05Z</time>
      </trkpt>
      <trkpt lat="49.18958" lon="7.28941">
        <ele>322.1</ele>
        <time>2022-07-11T18:37:07Z</time>
      </trkpt>
      <trkpt lat="49.18961" lon="7.28937">
        <ele>322.2</ele>
        <time>2022-07-11T18:37:20Z</time>
      </trkpt>
      <trkpt lat="49.18961" lon="7.28938">
        <ele>322.2</ele>
        <time>2022-07-11T18:37:56Z</time>
      </trkpt>
      <trkpt lat="49.18959" lon="7.28945">
        <ele>322.4</ele>
        <time>2022-07-11T18:38:05Z</time>
      </trkpt>
      <trkpt lat="49.18959" lon="7.28945">
        <ele>322.4</ele>
        <time>2022-07-11T18:38:07Z</time>
      </trkpt>
      <trkpt lat="49.18954" lon="7.2895">
        <ele>322.6</ele>
        <time>2022-07-11T18:38:17Z</time>
      </trkpt>
      <trkpt lat="49.18954" lon="7.28951">
        <ele>322.6</ele>
        <time>2022-07-11T18:38:18Z</time>
      </trkpt>
      <trkpt lat="49.18953" lon="7.28952">
        <ele>322.7</ele>
        <time>2022-07-11T18:38:24Z</time>
      </trkpt>
      <trkpt lat="49.18953" lon="7.28952">
        <ele>322.7</ele>
        <time>2022-07-11T18:38:25Z</time>
      </trkpt>
      <trkpt lat="49.18953" lon="7.28951">
        <ele>322.7</ele>
        <time>2022-07-11T18:38:27Z</time>
      </trkpt>
      <trkpt lat="49.18953" lon="7.28952">
        <ele>322.7</ele>
        <time>2022-07-11T18:38:28Z</time>
      </trkpt>
      <trkpt lat="49.18953" lon="7.28952">
        <ele>322.7</ele>
        <time>2022-07-11T18:38:29Z</time>
      </trkpt>
      <trkpt lat="49.18953" lon="7.28952">
        <ele>322.7</ele>
        <time>2022-07-11T18:38:50Z</time>
      </trkpt>
      <trkpt lat="49.18953" lon="7.28952">
        <ele>322.7</ele>
        <time>2022-07-11T18:38:51Z</time>
      </trkpt>
      <trkpt lat="49.18953" lon="7.28952">
        <ele>322.7</ele>
        <time>2022-07-11T18:39:26Z</time>
      </trkpt>
      <trkpt lat="49.18953" lon="7.28952">
        <ele>322.7</ele>
        <time>2022-07-11T18:39:27Z</time>
      </trkpt>
      <trkpt lat="49.18953" lon="7.28953">
        <ele>322.8</ele>
        <time>2022-07-11T18:39:59Z</time>
      </trkpt>
      <trkpt lat="49.18953" lon="7.28953">
        <ele>322.8</ele>
        <time>2022-07-11T18:40:00Z</time>
      </trkpt>
      <trkpt lat="49.18952" lon="7.28954">
        <ele>322.8</ele>
        <time>2022-07-11T18:40:07Z</time>
      </trkpt>
      <trkpt lat="49.18948" lon="7.28967">
        <ele>323.1</ele>
        <time>2022-07-11T18:40:21Z</time>
      </trkpt>
      <trkpt lat="49.18945" lon="7.28975">
        <ele>323.3</ele>
        <time>2022-07-11T18:40:30Z</time>
      </trkpt>
      <trkpt lat="49.18945" lon="7.28976">
        <ele>323.4</ele>
        <time>2022-07-11T18:40:36Z</time>
      </trkpt>
      <trkpt lat="49.18945" lon="7.28977">
        <ele>323.4</ele>
        <time>2022-07-11T18:40:39Z</time>
      </trkpt>
      <trkpt lat="49.18945" lon="7.28978">
        <ele>323.4</ele>
        <time>2022-07-11T18:40:40Z</time>
      </trkpt>
      <trkpt lat="49.18945" lon="7.28978">
        <ele>323.4</ele>
        <time>2022-07-11T18:40:41Z</time>
      </trkpt>
      <trkpt lat="49.18945" lon="7.28977">
        <ele>323.4</ele>
        <time>2022-07-11T18:40:44Z</time>
      </trkpt>
      <trkpt lat="49.18949" lon="7.28965">
        <ele>323.7</ele>
        <time>2022-07-11T18:40:54Z</time>
      </trkpt>
      <trkpt lat="49.18955" lon="7.28954">
        <ele>324.1</ele>
        <time>2022-07-11T18:41:03Z</time>
      </trkpt>
      <trkpt lat="49.18961" lon="7.28943">
        <ele>324.4</ele>
        <time>2022-07-11T18:41:13Z</time>
      </trkpt>
      <trkpt lat="49.18962" lon="7.28936">
        <ele>324.6</ele>
        <time>2022-07-11T18:41:22Z</time>
      </trkpt>
      <trkpt lat="49.18963" lon="7.28936">
        <ele>324.6</ele>
        <time>2022-07-11T18:41:23Z</time>
      </trkpt>
      <trkpt lat="49.18967" lon="7.28922">
        <ele>324.9</ele>
        <time>2022-07-11T18:41:35Z</time>
      </trkpt>
      <trkpt lat="49.18973" lon="7.28911">
        <ele>325.3</ele>
        <time>2022-07-11T18:41:46Z</time>
      </trkpt>
      <trkpt lat="49.18974" lon="7.28911">
        <ele>325.3</ele>
        <time>2022-07-11T18:41:59Z</time>
      </trkpt>
      <trkpt lat="49.18973" lon="7.28912">
        <ele>325.4</ele>
        <time>2022-07-11T18:42:00Z</time>
      </trkpt>
      <trkpt lat="49.18967" lon="7.28924">
        <ele>325.7</ele>
        <time>2022-07-11T18:42:07Z</time>
      </trkpt>
      <trkpt lat="49.18968" lon="7.28939">
        <ele>326.1</ele>
        <time>2022-07-11T18:42:16Z</time>
      </trkpt>
      <trkpt lat="49.18975" lon="7.28949">
        <ele>326.4</ele>
        <time>2022-07-11T18:42:22Z</time>
      </trkpt>
      <trkpt lat="49.18984" lon="7.28954">
        <ele>326.8</ele>
        <time>2022-07-11T18:42:29Z</time>
      </trkpt>
      <trkpt lat="49.18994" lon="7.28958">
        <ele>327.1</ele>
        <time>2022-07-11T18:42:35Z</time>
      </trkpt>
      <trkpt lat="49.19003" lon="7.28962">
        <ele>327.4</ele>
        <time>2022-07-11T18:42:43Z</time>
      </trkpt>
      <trkpt lat="49.19013" lon="7.28963">
        <ele>327.8</ele>
        <time>2022-07-11T18:42:51Z</time>
      </trkpt>
      <trkpt lat="49.19022" lon="7.28963">
        <ele>328.1</ele>
        <time>2022-07-11T18:42:57Z</time>
      </trkpt>
      <trkpt lat="49.19031" lon="7.28962">
        <ele>328.5</ele>
        <time>2022-07-11T18:43:05Z</time>
      </trkpt>
      <trkpt lat="49.19041" lon="7.28963">
        <ele>328.8</ele>
        <time>2022-07-11T18:43:14Z</time>
      </trkpt>
      <trkpt lat="49.1905" lon="7.28964">
        <ele>329.2</ele>
        <time>2022-07-11T18:43:23Z</time>
      </trkpt>
      <trkpt lat="49.1906" lon="7.28963">
        <ele>329.5</ele>
        <time>2022-07-11T18:43:32Z</time>
      </trkpt>
      <trkpt lat="49.19069" lon="7.28963">
        <ele>329.8</ele>
        <time>2022-07-11T18:43:40Z</time>
      </trkpt>
      <trkpt lat="49.19079" lon="7.2896">
        <ele>330.2</ele>
        <time>2022-07-11T18:43:49Z</time>
      </trkpt>
      <trkpt lat="49.19088" lon="7.28962">
        <ele>330.5</ele>
        <time>2022-07-11T18:43:55Z</time>
      </trkpt>
      <trkpt lat="49.19097" lon="7.2896">
        <ele>330.9</ele>
        <time>2022-07-11T18:44:02Z</time>
      </trkpt>
      <trkpt lat="49.19106" lon="7.28958">
        <ele>331.2</ele>
        <time>2022-07-11T18:44:10Z</time>
      </trkpt>
      <trkpt lat="49.19115" lon="7.28957">
        <ele>331.5</ele>
        <time>2022-07-11T18:44:17Z</time>
      </trkpt>
      <trkpt lat="49.19124" lon="7.28958">
        <ele>331.8</ele>
        <time>2022-07-11T18:44:25Z</time>
      </trkpt>
      <trkpt lat="49.19134" lon="7.28955">
        <ele>332.2</ele>
        <time>2022-07-11T18:44:32Z</time>
      </trkpt>
      <trkpt lat="49.19144" lon="7.28956">
        <ele>332.6</ele>
        <time>2022-07-11T18:44:40Z</time>
      </trkpt>
      <trkpt lat="49.19154" lon="7.28958">
        <ele>332.9</ele>
        <time>2022-07-11T18:44:47Z</time>
      </trkpt>
      <trkpt lat="49.19164" lon="7.28959">
        <ele>333.3</ele>
        <time>2022-07-11T18:44:54Z</time>
      </trkpt>
      <trkpt lat="49.19174" lon="7.28961">
        <ele>333.6</ele>
        <time>2022-07-11T18:45:02Z</time>
      </trkpt>
      <trkpt lat="49.19183" lon="7.2896">
        <ele>333.9</ele>
        <time>2022-07-11T18:45:08Z</time>
      </trkpt>
      <trkpt lat="49.19193" lon="7.28958">
        <ele>334.3</ele>
        <time>2022-07-11T18:45:17Z</time>
      </trkpt>
      <trkpt lat="49.19202" lon="7.2896">
        <ele>334.7</ele>
        <time>2022-07-11T18:45:25Z</time>
      </trkpt>
      <trkpt lat="49.19212" lon="7.28962">
        <ele>335</ele>
        <time>2022-07-11T18:45:32Z</time>
      </trkpt>
      <trkpt lat="49.19221" lon="7.28964">
        <ele>335.4</ele>
        <time>2022-07-11T18:45:38Z</time>
      </trkpt>
      <trkpt lat="49.19231" lon="7.28961">
        <ele>335.7</ele>
        <time>2022-07-11T18:45:45Z</time>
      </trkpt>
      <trkpt lat="49.19241" lon="7.28964">
        <ele>336.1</ele>
        <time>2022-07-11T18:45:54Z</time>
      </trkpt>
      <trkpt lat="49.1925" lon="7.28966">
        <ele>336.3</ele>
        <time>2022-07-11T18:46:01Z</time>
      </trkpt>
      <trkpt lat="49.19258" lon="7.2897">
        <ele>336.3</ele>
        <time>2022-07-11T18:46:07Z</time>
      </trkpt>
      <trkpt lat="49.19268" lon="7.2897">
        <ele>336.2</ele>
        <time>2022-07-11T18:46:13Z</time>
      </trkpt>
      <trkpt lat="49.19278" lon="7.28969">
        <ele>335.8</ele>
        <time>2022-07-11T18:46:21Z</time>
      </trkpt>
      <trkpt lat="49.19287" lon="7.28976">
        <ele>335.4</ele>
        <time>2022-07-11T18:46:30Z</time>
      </trkpt>
      <trkpt lat="49.19297" lon="7.28982">
        <ele>335.1</ele>
        <time>2022-07-11T18:46:38Z</time>
      </trkpt>
      <trkpt lat="49.19306" lon="7.28986">
        <ele>334.7</ele>
        <time>2022-07-11T18:46:45Z</time>
      </trkpt>
      <trkpt lat="49.19315" lon="7.28987">
        <ele>334.1</ele>
        <time>2022-07-11T18:46:51Z</time>
      </trkpt>
      <trkpt lat="49.19325" lon="7.28986">
        <ele>333.5</ele>
        <time>2022-07-11T18:46:58Z</time>
      </trkpt>
      <trkpt lat="49.19334" lon="7.28983">
        <ele>332.9</ele>
        <time>2022-07-11T18:47:03Z</time>
      </trkpt>
      <trkpt lat="49.19344" lon="7.28982">
        <ele>332.2</ele>
        <time>2022-07-11T18:47:11Z</time>
      </trkpt>
      <trkpt lat="49.19353" lon="7.28979">
        <ele>331.4</ele>
        <time>2022-07-11T18:47:18Z</time>
      </trkpt>
      <trkpt lat="49.19358" lon="7.28965">
        <ele>330.4</ele>
        <time>2022-07-11T18:47:26Z</time>
      </trkpt>
      <trkpt lat="49.19353" lon="7.28951">
        <ele>330.9</ele>
        <time>2022-07-11T18:47:34Z</time>
      </trkpt>
      <trkpt lat="49.19346" lon="7.28942">
        <ele>331.3</ele>
        <time>2022-07-11T18:47:39Z</time>
      </trkpt>
      <trkpt lat="49.19337" lon="7.28936">
        <ele>331.8</ele>
        <time>2022-07-11T18:47:45Z</time>
      </trkpt>
      <trkpt lat="49.19329" lon="7.28926">
        <ele>332.5</ele>
        <time>2022-07-11T18:47:52Z</time>
      </trkpt>
      <trkpt lat="49.1932" lon="7.2892">
        <ele>333.3</ele>
        <time>2022-07-11T18:48:00Z</time>
      </trkpt>
      <trkpt lat="49.19314" lon="7.28908">
        <ele>334.3</ele>
        <time>2022-07-11T18:48:10Z</time>
      </trkpt>
      <trkpt lat="49.19308" lon="7.28896">
        <ele>335.5</ele>
        <time>2022-07-11T18:48:17Z</time>
      </trkpt>
      <trkpt lat="49.19301" lon="7.28884">
        <ele>336.9</ele>
        <time>2022-07-11T18:48:26Z</time>
      </trkpt>
      <trkpt lat="49.19292" lon="7.2888">
        <ele>338.4</ele>
        <time>2022-07-11T18:48:32Z</time>
      </trkpt>
      <trkpt lat="49.19283" lon="7.28881">
        <ele>339.5</ele>
        <time>2022-07-11T18:48:40Z</time>
      </trkpt>
      <trkpt lat="49.19273" lon="7.28877">
        <ele>340.7</ele>
        <time>2022-07-11T18:48:48Z</time>
      </trkpt>
      <trkpt lat="49.19264" lon="7.2887">
        <ele>342</ele>
        <time>2022-07-11T18:48:56Z</time>
      </trkpt>
      <trkpt lat="49.19255" lon="7.28865">
        <ele>343.4</ele>
        <time>2022-07-11T18:49:03Z</time>
      </trkpt>
      <trkpt lat="49.19245" lon="7.2886">
        <ele>344.9</ele>
        <time>2022-07-11T18:49:13Z</time>
      </trkpt>
      <trkpt lat="49.19236" lon="7.28855">
        <ele>346.5</ele>
        <time>2022-07-11T18:49:23Z</time>
      </trkpt>
      <trkpt lat="49.19227" lon="7.28854">
        <ele>347.8</ele>
        <time>2022-07-11T18:49:31Z</time>
      </trkpt>
      <trkpt lat="49.19219" lon="7.28846">
        <ele>348.9</ele>
        <time>2022-07-11T18:49:38Z</time>
      </trkpt>
      <trkpt lat="49.19212" lon="7.28836">
        <ele>350.1</ele>
        <time>2022-07-11T18:49:44Z</time>
      </trkpt>
      <trkpt lat="49.19205" lon="7.28825">
        <ele>351.1</ele>
        <time>2022-07-11T18:49:53Z</time>
      </trkpt>
      <trkpt lat="49.19199" lon="7.28813">
        <ele>352.1</ele>
        <time>2022-07-11T18:50:02Z</time>
      </trkpt>
      <trkpt lat="49.19193" lon="7.28802">
        <ele>353.1</ele>
        <time>2022-07-11T18:50:09Z</time>
      </trkpt>
      <trkpt lat="49.19187" lon="7.2879">
        <ele>354.1</ele>
        <time>2022-07-11T18:50:18Z</time>
      </trkpt>
      <trkpt lat="49.1918" lon="7.28778">
        <ele>355.1</ele>
        <time>2022-07-11T18:50:25Z</time>
      </trkpt>
      <trkpt lat="49.19176" lon="7.28765">
        <ele>356</ele>
        <time>2022-07-11T18:50:33Z</time>
      </trkpt>
      <trkpt lat="49.1917" lon="7.28753">
        <ele>356.9</ele>
        <time>2022-07-11T18:50:40Z</time>
      </trkpt>
      <trkpt lat="49.19164" lon="7.28743">
        <ele>357.6</ele>
        <time>2022-07-11T18:50:47Z</time>
      </trkpt>
      <trkpt lat="49.19157" lon="7.28733">
        <ele>358.3</ele>
        <time>2022-07-11T18:50:53Z</time>
      </trkpt>
      <trkpt lat="49.19151" lon="7.28721">
        <ele>359</ele>
        <time>2022-07-11T18:51:01Z</time>
      </trkpt>
      <trkpt lat="49.19146" lon="7.28709">
        <ele>359.6</ele>
        <time>2022-07-11T18:51:08Z</time>
      </trkpt>
      <trkpt lat="49.19138" lon="7.28702">
        <ele>360.2</ele>
        <time>2022-07-11T18:51:16Z</time>
      </trkpt>
      <trkpt lat="49.19131" lon="7.28692">
        <ele>360.8</ele>
        <time>2022-07-11T18:51:23Z</time>
      </trkpt>
      <trkpt lat="49.1913" lon="7.28678">
        <ele>361.4</ele>
        <time>2022-07-11T18:51:49Z</time>
      </trkpt>
      <trkpt lat="49.19125" lon="7.28664">
        <ele>362</ele>
        <time>2022-07-11T18:51:57Z</time>
      </trkpt>
      <trkpt lat="49.19118" lon="7.28655">
        <ele>362.6</ele>
        <time>2022-07-11T18:52:04Z</time>
      </trkpt>
      <trkpt lat="49.19113" lon="7.28644">
        <ele>363.1</ele>
        <time>2022-07-11T18:52:15Z</time>
      </trkpt>
      <trkpt lat="49.19108" lon="7.28632">
        <ele>363.7</ele>
        <time>2022-07-11T18:52:22Z</time>
      </trkpt>
      <trkpt lat="49.19104" lon="7.28619">
        <ele>364.2</ele>
        <time>2022-07-11T18:52:30Z</time>
      </trkpt>
      <trkpt lat="49.19101" lon="7.28604">
        <ele>364.9</ele>
        <time>2022-07-11T18:52:37Z</time>
      </trkpt>
      <trkpt lat="49.19098" lon="7.2859">
        <ele>365.6</ele>
        <time>2022-07-11T18:52:42Z</time>
      </trkpt>
      <trkpt lat="49.1909" lon="7.28582">
        <ele>366.2</ele>
        <time>2022-07-11T18:52:48Z</time>
      </trkpt>
      <trkpt lat="49.19082" lon="7.28576">
        <ele>366.9</ele>
        <time>2022-07-11T18:52:56Z</time>
      </trkpt>
      <trkpt lat="49.19076" lon="7.28563">
        <ele>367.5</ele>
        <time>2022-07-11T18:53:06Z</time>
      </trkpt>
      <trkpt lat="49.19071" lon="7.2855">
        <ele>368</ele>
        <time>2022-07-11T18:53:14Z</time>
      </trkpt>
      <trkpt lat="49.19066" lon="7.28537">
        <ele>368.4</ele>
        <time>2022-07-11T18:53:25Z</time>
      </trkpt>
      <trkpt lat="49.19064" lon="7.28521">
        <ele>368.9</ele>
        <time>2022-07-11T18:53:31Z</time>
      </trkpt>
      <trkpt lat="49.19063" lon="7.28506">
        <ele>369.3</ele>
        <time>2022-07-11T18:53:39Z</time>
      </trkpt>
      <trkpt lat="49.19056" lon="7.28495">
        <ele>369.7</ele>
        <time>2022-07-11T18:53:45Z</time>
      </trkpt>
      <trkpt lat="49.19055" lon="7.28481">
        <ele>370</ele>
        <time>2022-07-11T18:53:53Z</time>
      </trkpt>
      <trkpt lat="49.19049" lon="7.28469">
        <ele>370.4</ele>
        <time>2022-07-11T18:54:02Z</time>
      </trkpt>
      <trkpt lat="49.19041" lon="7.28461">
        <ele>370.7</ele>
        <time>2022-07-11T18:54:10Z</time>
      </trkpt>
      <trkpt lat="49.19031" lon="7.28451">
        <ele>371.1</ele>
        <time>2022-07-11T18:54:16Z</time>
      </trkpt>
      <trkpt lat="49.19021" lon="7.28449">
        <ele>371.4</ele>
        <time>2022-07-11T18:54:23Z</time>
      </trkpt>
      <trkpt lat="49.19012" lon="7.2845">
        <ele>371.5</ele>
        <time>2022-07-11T18:54:30Z</time>
      </trkpt>
      <trkpt lat="49.19005" lon="7.28438">
        <ele>371.6</ele>
        <time>2022-07-11T18:54:38Z</time>
      </trkpt>
      <trkpt lat="49.18999" lon="7.28426">
        <ele>371.7</ele>
        <time>2022-07-11T18:54:46Z</time>
      </trkpt>
      <trkpt lat="49.18991" lon="7.28418">
        <ele>371.8</ele>
        <time>2022-07-11T18:54:53Z</time>
      </trkpt>
      <trkpt lat="49.18986" lon="7.28406">
        <ele>371.9</ele>
        <time>2022-07-11T18:55:00Z</time>
      </trkpt>
      <trkpt lat="49.18979" lon="7.28395">
        <ele>372.1</ele>
        <time>2022-07-11T18:55:06Z</time>
      </trkpt>
      <trkpt lat="49.18975" lon="7.2838">
        <ele>372.5</ele>
        <time>2022-07-11T18:55:15Z</time>
      </trkpt>
      <trkpt lat="49.18967" lon="7.28371">
        <ele>372.9</ele>
        <time>2022-07-11T18:55:23Z</time>
      </trkpt>
      <trkpt lat="49.1896" lon="7.2836">
        <ele>373.4</ele>
        <time>2022-07-11T18:55:30Z</time>
      </trkpt>
      <trkpt lat="49.18954" lon="7.2835">
        <ele>373.9</ele>
        <time>2022-07-11T18:55:39Z</time>
      </trkpt>
      <trkpt lat="49.18946" lon="7.28339">
        <ele>374.5</ele>
        <time>2022-07-11T18:55:46Z</time>
      </trkpt>
      <trkpt lat="49.18939" lon="7.28328">
        <ele>375</ele>
        <time>2022-07-11T18:55:54Z</time>
      </trkpt>
      <trkpt lat="49.18933" lon="7.28317">
        <ele>375.6</ele>
        <time>2022-07-11T18:56:02Z</time>
      </trkpt>
      <trkpt lat="49.18928" lon="7.28305">
        <ele>376.1</ele>
        <time>2022-07-11T18:56:10Z</time>
      </trkpt>
      <trkpt lat="49.18919" lon="7.28297">
        <ele>376.6</ele>
        <time>2022-07-11T18:56:18Z</time>
      </trkpt>
      <trkpt lat="49.18912" lon="7.28288">
        <ele>377.1</ele>
        <time>2022-07-11T18:56:26Z</time>
      </trkpt>
      <trkpt lat="49.18904" lon="7.2828">
        <ele>377.5</ele>
        <time>2022-07-11T18:56:33Z</time>
      </trkpt>
      <trkpt lat="49.18897" lon="7.28269">
        <ele>378</ele>
        <time>2022-07-11T18:56:41Z</time>
      </trkpt>
      <trkpt lat="49.18892" lon="7.28258">
        <ele>378.4</ele>
        <time>2022-07-11T18:56:47Z</time>
      </trkpt>
      <trkpt lat="49.18885" lon="7.28248">
        <ele>378.8</ele>
        <time>2022-07-11T18:56:54Z</time>
      </trkpt>
      <trkpt lat="49.18878" lon="7.2824">
        <ele>379.2</ele>
        <time>2022-07-11T18:57:01Z</time>
      </trkpt>
      <trkpt lat="49.18871" lon="7.2823">
        <ele>379.6</ele>
        <time>2022-07-11T18:57:08Z</time>
      </trkpt>
      <trkpt lat="49.18863" lon="7.28221">
        <ele>380</ele>
        <time>2022-07-11T18:57:16Z</time>
      </trkpt>
      <trkpt lat="49.18855" lon="7.28212">
        <ele>380.5</ele>
        <time>2022-07-11T18:57:24Z</time>
      </trkpt>
      <trkpt lat="49.18848" lon="7.28202">
        <ele>380.9</ele>
        <time>2022-07-11T18:57:32Z</time>
      </trkpt>
      <trkpt lat="49.18842" lon="7.28193">
        <ele>381.4</ele>
        <time>2022-07-11T18:57:42Z</time>
      </trkpt>
      <trkpt lat="49.18842" lon="7.28193">
        <ele>381.4</ele>
        <time>2022-07-11T18:57:43Z</time>
      </trkpt>
      <trkpt lat="49.18842" lon="7.28188">
        <ele>381.5</ele>
        <time>2022-07-11T18:57:52Z</time>
      </trkpt>
      <trkpt lat="49.18842" lon="7.28188">
        <ele>381.5</ele>
        <time>2022-07-11T18:57:56Z</time>
      </trkpt>
      <trkpt lat="49.18847" lon="7.28177">
        <ele>381.8</ele>
        <time>2022-07-11T18:58:05Z</time>
      </trkpt>
      <trkpt lat="49.18852" lon="7.28164">
        <ele>382.1</ele>
        <time>2022-07-11T18:58:12Z</time>
      </trkpt>
      <trkpt lat="49.18857" lon="7.28151">
        <ele>382.4</ele>
        <time>2022-07-11T18:58:20Z</time>
      </trkpt>
      <trkpt lat="49.18864" lon="7.28141">
        <ele>382.6</ele>
        <time>2022-07-11T18:58:27Z</time>
      </trkpt>
      <trkpt lat="49.1887" lon="7.28128">
        <ele>382.9</ele>
        <time>2022-07-11T18:58:35Z</time>
      </trkpt>
      <trkpt lat="49.18875" lon="7.28116">
        <ele>383.1</ele>
        <time>2022-07-11T18:58:42Z</time>
      </trkpt>
      <trkpt lat="49.1888" lon="7.28104">
        <ele>383.3</ele>
        <time>2022-07-11T18:58:49Z</time>
      </trkpt>
      <trkpt lat="49.18883" lon="7.28091">
        <ele>383.7</ele>
        <time>2022-07-11T18:58:55Z</time>
      </trkpt>
      <trkpt lat="49.18884" lon="7.28076">
        <ele>384.4</ele>
        <time>2022-07-11T18:59:03Z</time>
      </trkpt>
      <trkpt lat="49.1888" lon="7.28063">
        <ele>386.7</ele>
        <time>2022-07-11T18:59:11Z</time>
      </trkpt>
      <trkpt lat="49.18873" lon="7.28052">
        <ele>387.9</ele>
        <time>2022-07-11T18:59:20Z</time>
      </trkpt>
      <trkpt lat="49.18866" lon="7.28042">
        <ele>389</ele>
        <time>2022-07-11T18:59:28Z</time>
      </trkpt>
      <trkpt lat="49.18858" lon="7.28032">
        <ele>390.1</ele>
        <time>2022-07-11T18:59:35Z</time>
      </trkpt>
      <trkpt lat="49.18852" lon="7.28021">
        <ele>391</ele>
        <time>2022-07-11T18:59:42Z</time>
      </trkpt>
      <trkpt lat="49.18844" lon="7.28011">
        <ele>391.9</ele>
        <time>2022-07-11T18:59:49Z</time>
      </trkpt>
      <trkpt lat="49.18836" lon="7.28002">
        <ele>392.5</ele>
        <time>2022-07-11T18:59:57Z</time>
      </trkpt>
      <trkpt lat="49.18829" lon="7.27993">
        <ele>393.1</ele>
        <time>2022-07-11T19:00:05Z</time>
      </trkpt>
      <trkpt lat="49.18821" lon="7.27985">
        <ele>393.7</ele>
        <time>2022-07-11T19:00:13Z</time>
      </trkpt>
      <trkpt lat="49.18815" lon="7.27973">
        <ele>394.2</ele>
        <time>2022-07-11T19:00:20Z</time>
      </trkpt>
      <trkpt lat="49.18808" lon="7.27964">
        <ele>394.7</ele>
        <time>2022-07-11T19:00:28Z</time>
      </trkpt>
      <trkpt lat="49.188" lon="7.27956">
        <ele>395.2</ele>
        <time>2022-07-11T19:00:34Z</time>
      </trkpt>
      <trkpt lat="49.18793" lon="7.27946">
        <ele>395.7</ele>
        <time>2022-07-11T19:00:41Z</time>
      </trkpt>
      <trkpt lat="49.18786" lon="7.27936">
        <ele>396.3</ele>
        <time>2022-07-11T19:00:48Z</time>
      </trkpt>
      <trkpt lat="49.18785" lon="7.27922">
        <ele>396.7</ele>
        <time>2022-07-11T19:00:55Z</time>
      </trkpt>
      <trkpt lat="49.18787" lon="7.27908">
        <ele>396.8</ele>
        <time>2022-07-11T19:01:02Z</time>
      </trkpt>
      <trkpt lat="49.18785" lon="7.27898">
        <ele>396.9</ele>
        <time>2022-07-11T19:01:18Z</time>
      </trkpt>
      <trkpt lat="49.18785" lon="7.27898">
        <ele>396.9</ele>
        <time>2022-07-11T19:01:22Z</time>
      </trkpt>
      <trkpt lat="49.18786" lon="7.27897">
        <ele>396.9</ele>
        <time>2022-07-11T19:01:27Z</time>
      </trkpt>
      <trkpt lat="49.18786" lon="7.27898">
        <ele>396.9</ele>
        <time>2022-07-11T19:01:35Z</time>
      </trkpt>
      <trkpt lat="49.18786" lon="7.27898">
        <ele>396.9</ele>
        <time>2022-07-11T19:01:37Z</time>
      </trkpt>
      <trkpt lat="49.18786" lon="7.27898">
        <ele>396.9</ele>
        <time>2022-07-11T19:01:38Z</time>
      </trkpt>
      <trkpt lat="49.18786" lon="7.27897">
        <ele>396.9</ele>
        <time>2022-07-11T19:01:40Z</time>
      </trkpt>
      <trkpt lat="49.18786" lon="7.27897">
        <ele>396.9</ele>
        <time>2022-07-11T19:01:41Z</time>
      </trkpt>
      <trkpt lat="49.18786" lon="7.27897">
        <ele>396.9</ele>
        <time>2022-07-11T19:01:42Z</time>
      </trkpt>
      <trkpt lat="49.18786" lon="7.27897">
        <ele>396.9</ele>
        <time>2022-07-11T19:01:43Z</time>
      </trkpt>
      <trkpt lat="49.18787" lon="7.27897">
        <ele>396.9</ele>
        <time>2022-07-11T19:01:45Z</time>
      </trkpt>
      <trkpt lat="49.18787" lon="7.27897">
        <ele>396.9</ele>
        <time>2022-07-11T19:02:08Z</time>
      </trkpt>
      <trkpt lat="49.18777" lon="7.27895">
        <ele>397.1</ele>
        <time>2022-07-11T19:02:27Z</time>
      </trkpt>
      <trkpt lat="49.18779" lon="7.27898">
        <ele>397.1</ele>
        <time>2022-07-11T19:02:47Z</time>
      </trkpt>
      <trkpt lat="49.18778" lon="7.27899">
        <ele>397.1</ele>
        <time>2022-07-11T19:02:58Z</time>
      </trkpt>
      <trkpt lat="49.18779" lon="7.27903">
        <ele>397.1</ele>
        <time>2022-07-11T19:03:04Z</time>
      </trkpt>
      <trkpt lat="49.18779" lon="7.27903">
        <ele>397.1</ele>
        <time>2022-07-11T19:03:23Z</time>
      </trkpt>
      <trkpt lat="49.18777" lon="7.27901">
        <ele>397.2</ele>
        <time>2022-07-11T19:03:31Z</time>
      </trkpt>
      <trkpt lat="49.18777" lon="7.27902">
        <ele>397.2</ele>
        <time>2022-07-11T19:03:41Z</time>
      </trkpt>
      <trkpt lat="49.18778" lon="7.279">
        <ele>397.2</ele>
        <time>2022-07-11T19:03:54Z</time>
      </trkpt>
      <trkpt lat="49.18778" lon="7.279">
        <ele>397.2</ele>
        <time>2022-07-11T19:03:55Z</time>
      </trkpt>
      <trkpt lat="49.18788" lon="7.27902">
        <ele>397.3</ele>
        <time>2022-07-11T19:04:16Z</time>
      </trkpt>
      <trkpt lat="49.18786" lon="7.27888">
        <ele>397.4</ele>
        <time>2022-07-11T19:04:25Z</time>
      </trkpt>
      <trkpt lat="49.18777" lon="7.27881">
        <ele>397.5</ele>
        <time>2022-07-11T19:04:32Z</time>
      </trkpt>
      <trkpt lat="49.18768" lon="7.27878">
        <ele>398</ele>
        <time>2022-07-11T19:04:41Z</time>
      </trkpt>
      <trkpt lat="49.18766" lon="7.27865">
        <ele>398.2</ele>
        <time>2022-07-11T19:05:06Z</time>
      </trkpt>
      <trkpt lat="49.18771" lon="7.27852">
        <ele>398.2</ele>
        <time>2022-07-11T19:05:15Z</time>
      </trkpt>
      <trkpt lat="49.18774" lon="7.27838">
        <ele>398.1</ele>
        <time>2022-07-11T19:05:22Z</time>
      </trkpt>
      <trkpt lat="49.18777" lon="7.27824">
        <ele>397.9</ele>
        <time>2022-07-11T19:05:29Z</time>
      </trkpt>
      <trkpt lat="49.18779" lon="7.2781">
        <ele>397.8</ele>
        <time>2022-07-11T19:05:39Z</time>
      </trkpt>
      <trkpt lat="49.1878" lon="7.27796">
        <ele>397.6</ele>
        <time>2022-07-11T19:05:46Z</time>
      </trkpt>
      <trkpt lat="49.18781" lon="7.27782">
        <ele>397.4</ele>
        <time>2022-07-11T19:05:53Z</time>
      </trkpt>
      <trkpt lat="49.18782" lon="7.27767">
        <ele>397</ele>
        <time>2022-07-11T19:06:00Z</time>
      </trkpt>
      <trkpt lat="49.18784" lon="7.27754">
        <ele>396.7</ele>
        <time>2022-07-11T19:06:08Z</time>
      </trkpt>
      <trkpt lat="49.18787" lon="7.27739">
        <ele>396.3</ele>
        <time>2022-07-11T19:06:15Z</time>
      </trkpt>
      <trkpt lat="49.1879" lon="7.27726">
        <ele>395.9</ele>
        <time>2022-07-11T19:06:24Z</time>
      </trkpt>
      <trkpt lat="49.18791" lon="7.27712">
        <ele>395.5</ele>
        <time>2022-07-11T19:06:31Z</time>
      </trkpt>
      <trkpt lat="49.18792" lon="7.27696">
        <ele>395.2</ele>
        <time>2022-07-11T19:06:38Z</time>
      </trkpt>
      <trkpt lat="49.18788" lon="7.27682">
        <ele>394.9</ele>
        <time>2022-07-11T19:06:49Z</time>
      </trkpt>
      <trkpt lat="49.18789" lon="7.27666">
        <ele>394.6</ele>
        <time>2022-07-11T19:06:58Z</time>
      </trkpt>
      <trkpt lat="49.18791" lon="7.2765">
        <ele>394.3</ele>
        <time>2022-07-11T19:07:04Z</time>
      </trkpt>
      <trkpt lat="49.18793" lon="7.27636">
        <ele>394</ele>
        <time>2022-07-11T19:07:11Z</time>
      </trkpt>
      <trkpt lat="49.18794" lon="7.27622">
        <ele>393.7</ele>
        <time>2022-07-11T19:07:18Z</time>
      </trkpt>
      <trkpt lat="49.18797" lon="7.27608">
        <ele>393.4</ele>
        <time>2022-07-11T19:07:26Z</time>
      </trkpt>
      <trkpt lat="49.18801" lon="7.27594">
        <ele>393</ele>
        <time>2022-07-11T19:07:36Z</time>
      </trkpt>
      <trkpt lat="49.18806" lon="7.27581">
        <ele>392.5</ele>
        <time>2022-07-11T19:07:43Z</time>
      </trkpt>
      <trkpt lat="49.18811" lon="7.27569">
        <ele>392</ele>
        <time>2022-07-11T19:07:48Z</time>
      </trkpt>
      <trkpt lat="49.18812" lon="7.27554">
        <ele>391.4</ele>
        <time>2022-07-11T19:07:57Z</time>
      </trkpt>
      <trkpt lat="49.18813" lon="7.2754">
        <ele>390.9</ele>
        <time>2022-07-11T19:08:07Z</time>
      </trkpt>
      <trkpt lat="49.18814" lon="7.27525">
        <ele>390.4</ele>
        <time>2022-07-11T19:08:13Z</time>
      </trkpt>
      <trkpt lat="49.18818" lon="7.27512">
        <ele>390</ele>
        <time>2022-07-11T19:08:21Z</time>
      </trkpt>
      <trkpt lat="49.18816" lon="7.27498">
        <ele>389.5</ele>
        <time>2022-07-11T19:08:29Z</time>
      </trkpt>
      <trkpt lat="49.18819" lon="7.27485">
        <ele>389.1</ele>
        <time>2022-07-11T19:08:36Z</time>
      </trkpt>
      <trkpt lat="49.18824" lon="7.27473">
        <ele>388.7</ele>
        <time>2022-07-11T19:08:44Z</time>
      </trkpt>
      <trkpt lat="49.18832" lon="7.27462">
        <ele>388.2</ele>
        <time>2022-07-11T19:08:49Z</time>
      </trkpt>
      <trkpt lat="49.18838" lon="7.2745">
        <ele>387.8</ele>
        <time>2022-07-11T19:08:55Z</time>
      </trkpt>
      <trkpt lat="49.18838" lon="7.27435">
        <ele>387.4</ele>
        <time>2022-07-11T19:09:02Z</time>
      </trkpt>
      <trkpt lat="49.18836" lon="7.27421">
        <ele>387</ele>
        <time>2022-07-11T19:09:09Z</time>
      </trkpt>
      <trkpt lat="49.1884" lon="7.27407">
        <ele>386.6</ele>
        <time>2022-07-11T19:09:15Z</time>
      </trkpt>
      <trkpt lat="49.18844" lon="7.27394">
        <ele>386.3</ele>
        <time>2022-07-11T19:09:21Z</time>
      </trkpt>
      <trkpt lat="49.18845" lon="7.27379">
        <ele>386</ele>
        <time>2022-07-11T19:09:27Z</time>
      </trkpt>
      <trkpt lat="49.18843" lon="7.27365">
        <ele>385.7</ele>
        <time>2022-07-11T19:09:34Z</time>
      </trkpt>
      <trkpt lat="49.18844" lon="7.2735">
        <ele>385.3</ele>
        <time>2022-07-11T19:09:42Z</time>
      </trkpt>
      <trkpt lat="49.18847" lon="7.27335">
        <ele>385</ele>
        <time>2022-07-11T19:09:50Z</time>
      </trkpt>
      <trkpt lat="49.18848" lon="7.27322">
        <ele>384.7</ele>
        <time>2022-07-11T19:09:57Z</time>
      </trkpt>
      <trkpt lat="49.1885" lon="7.27308">
        <ele>384.3</ele>
        <time>2022-07-11T19:10:04Z</time>
      </trkpt>
      <trkpt lat="49.1885" lon="7.27293">
        <ele>384</ele>
        <time>2022-07-11T19:10:15Z</time>
      </trkpt>
      <trkpt lat="49.1885" lon="7.27278">
        <ele>383.7</ele>
        <time>2022-07-11T19:10:23Z</time>
      </trkpt>
      <trkpt lat="49.18854" lon="7.27265">
        <ele>383.4</ele>
        <time>2022-07-11T19:10:30Z</time>
      </trkpt>
      <trkpt lat="49.18858" lon="7.27252">
        <ele>383</ele>
        <time>2022-07-11T19:10:37Z</time>
      </trkpt>
      <trkpt lat="49.18862" lon="7.27237">
        <ele>382.7</ele>
        <time>2022-07-11T19:10:45Z</time>
      </trkpt>
      <trkpt lat="49.18868" lon="7.27224">
        <ele>382.3</ele>
        <time>2022-07-11T19:10:53Z</time>
      </trkpt>
      <trkpt lat="49.18874" lon="7.27223">
        <ele>382.8</ele>
        <time>2022-07-11T19:11:08Z</time>
      </trkpt>
      <trkpt lat="49.18873" lon="7.27223">
        <ele>382.8</ele>
        <time>2022-07-11T19:11:11Z</time>
      </trkpt>
      <trkpt lat="49.18863" lon="7.27222">
        <ele>383.7</ele>
        <time>2022-07-11T19:11:18Z</time>
      </trkpt>
      <trkpt lat="49.18853" lon="7.27219">
        <ele>384.6</ele>
        <time>2022-07-11T19:11:24Z</time>
      </trkpt>
      <trkpt lat="49.18844" lon="7.27216">
        <ele>385.4</ele>
        <time>2022-07-11T19:11:31Z</time>
      </trkpt>
      <trkpt lat="49.18833" lon="7.27214">
        <ele>386.3</ele>
        <time>2022-07-11T19:11:37Z</time>
      </trkpt>
      <trkpt lat="49.18824" lon="7.27211">
        <ele>387.1</ele>
        <time>2022-07-11T19:11:44Z</time>
      </trkpt>
      <trkpt lat="49.18815" lon="7.27208">
        <ele>387.9</ele>
        <time>2022-07-11T19:11:51Z</time>
      </trkpt>
      <trkpt lat="49.18805" lon="7.27206">
        <ele>388.7</ele>
        <time>2022-07-11T19:11:59Z</time>
      </trkpt>
      <trkpt lat="49.18796" lon="7.27211">
        <ele>389.5</ele>
        <time>2022-07-11T19:12:06Z</time>
      </trkpt>
      <trkpt lat="49.18788" lon="7.27215">
        <ele>390.2</ele>
        <time>2022-07-11T19:12:12Z</time>
      </trkpt>
      <trkpt lat="49.18778" lon="7.27218">
        <ele>391</ele>
        <time>2022-07-11T19:12:20Z</time>
      </trkpt>
      <trkpt lat="49.18769" lon="7.2722">
        <ele>391.7</ele>
        <time>2022-07-11T19:12:30Z</time>
      </trkpt>
      <trkpt lat="49.1876" lon="7.27221">
        <ele>392.4</ele>
        <time>2022-07-11T19:12:37Z</time>
      </trkpt>
      <trkpt lat="49.18751" lon="7.27224">
        <ele>393</ele>
        <time>2022-07-11T19:12:45Z</time>
      </trkpt>
      <trkpt lat="49.18741" lon="7.27225">
        <ele>393.7</ele>
        <time>2022-07-11T19:12:54Z</time>
      </trkpt>
      <trkpt lat="49.18732" lon="7.27225">
        <ele>394.3</ele>
        <time>2022-07-11T19:13:06Z</time>
      </trkpt>
      <trkpt lat="49.18723" lon="7.27228">
        <ele>395</ele>
        <time>2022-07-11T19:13:15Z</time>
      </trkpt>
      <trkpt lat="49.18714" lon="7.2723">
        <ele>395.6</ele>
        <time>2022-07-11T19:13:22Z</time>
      </trkpt>
      <trkpt lat="49.18704" lon="7.2723">
        <ele>396.2</ele>
        <time>2022-07-11T19:13:28Z</time>
      </trkpt>
      <trkpt lat="49.18695" lon="7.2723">
        <ele>396.8</ele>
        <time>2022-07-11T19:13:33Z</time>
      </trkpt>
      <trkpt lat="49.18685" lon="7.2723">
        <ele>397.4</ele>
        <time>2022-07-11T19:13:39Z</time>
      </trkpt>
      <trkpt lat="49.18676" lon="7.27229">
        <ele>398</ele>
        <time>2022-07-11T19:13:46Z</time>
      </trkpt>
      <trkpt lat="49.18665" lon="7.27229">
        <ele>398.5</ele>
        <time>2022-07-11T19:13:53Z</time>
      </trkpt>
      <trkpt lat="49.18656" lon="7.27231">
        <ele>399</ele>
        <time>2022-07-11T19:14:02Z</time>
      </trkpt>
      <trkpt lat="49.18647" lon="7.27228">
        <ele>399.5</ele>
        <time>2022-07-11T19:14:09Z</time>
      </trkpt>
      <trkpt lat="49.18637" lon="7.27227">
        <ele>399.9</ele>
        <time>2022-07-11T19:14:17Z</time>
      </trkpt>
      <trkpt lat="49.18628" lon="7.27229">
        <ele>400.3</ele>
        <time>2022-07-11T19:14:25Z</time>
      </trkpt>
      <trkpt lat="49.18618" lon="7.27229">
        <ele>400.6</ele>
        <time>2022-07-11T19:14:31Z</time>
      </trkpt>
      <trkpt lat="49.18608" lon="7.27231">
        <ele>400.8</ele>
        <time>2022-07-11T19:14:41Z</time>
      </trkpt>
      <trkpt lat="49.18599" lon="7.27229">
        <ele>401</ele>
        <time>2022-07-11T19:14:48Z</time>
      </trkpt>
      <trkpt lat="49.1859" lon="7.27229">
        <ele>401.1</ele>
        <time>2022-07-11T19:14:58Z</time>
      </trkpt>
      <trkpt lat="49.18581" lon="7.27232">
        <ele>401.1</ele>
        <time>2022-07-11T19:15:06Z</time>
      </trkpt>
      <trkpt lat="49.18571" lon="7.2723">
        <ele>401.1</ele>
        <time>2022-07-11T19:15:12Z</time>
      </trkpt>
      <trkpt lat="49.18561" lon="7.27232">
        <ele>400.9</ele>
        <time>2022-07-11T19:15:21Z</time>
      </trkpt>
      <trkpt lat="49.18552" lon="7.27232">
        <ele>400.6</ele>
        <time>2022-07-11T19:15:28Z</time>
      </trkpt>
      <trkpt lat="49.18543" lon="7.27232">
        <ele>400.3</ele>
        <time>2022-07-11T19:15:35Z</time>
      </trkpt>
      <trkpt lat="49.18533" lon="7.27232">
        <ele>400</ele>
        <time>2022-07-11T19:15:44Z</time>
      </trkpt>
      <trkpt lat="49.18523" lon="7.27231">
        <ele>399.7</ele>
        <time>2022-07-11T19:15:53Z</time>
      </trkpt>
      <trkpt lat="49.18513" lon="7.27234">
        <ele>399.3</ele>
        <time>2022-07-11T19:16:00Z</time>
      </trkpt>
      <trkpt lat="49.18503" lon="7.27238">
        <ele>399</ele>
        <time>2022-07-11T19:16:07Z</time>
      </trkpt>
      <trkpt lat="49.18494" lon="7.27238">
        <ele>398.5</ele>
        <time>2022-07-11T19:16:14Z</time>
      </trkpt>
      <trkpt lat="49.18484" lon="7.27241">
        <ele>398</ele>
        <time>2022-07-11T19:16:21Z</time>
      </trkpt>
      <trkpt lat="49.18475" lon="7.27245">
        <ele>397.5</ele>
        <time>2022-07-11T19:16:29Z</time>
      </trkpt>
      <trkpt lat="49.18466" lon="7.27249">
        <ele>397</ele>
        <time>2022-07-11T19:16:37Z</time>
      </trkpt>
      <trkpt lat="49.18457" lon="7.27255">
        <ele>396.5</ele>
        <time>2022-07-11T19:16:46Z</time>
      </trkpt>
      <trkpt lat="49.18448" lon="7.27258">
        <ele>396.1</ele>
        <time>2022-07-11T19:16:52Z</time>
      </trkpt>
      <trkpt lat="49.18439" lon="7.27266">
        <ele>395.6</ele>
        <time>2022-07-11T19:16:59Z</time>
      </trkpt>
      <trkpt lat="49.1843" lon="7.27274">
        <ele>395.1</ele>
        <time>2022-07-11T19:17:06Z</time>
      </trkpt>
      <trkpt lat="49.18421" lon="7.27279">
        <ele>394.6</ele>
        <time>2022-07-11T19:17:12Z</time>
      </trkpt>
      <trkpt lat="49.18411" lon="7.27284">
        <ele>394.1</ele>
        <time>2022-07-11T19:17:21Z</time>
      </trkpt>
      <trkpt lat="49.18403" lon="7.27291">
        <ele>393.6</ele>
        <time>2022-07-11T19:17:30Z</time>
      </trkpt>
      <trkpt lat="49.18395" lon="7.27298">
        <ele>393</ele>
        <time>2022-07-11T19:17:44Z</time>
      </trkpt>
      <trkpt lat="49.184" lon="7.27311">
        <ele>392.9</ele>
        <time>2022-07-11T19:17:59Z</time>
      </trkpt>
      <trkpt lat="49.18406" lon="7.27322">
        <ele>392.8</ele>
        <time>2022-07-11T19:18:05Z</time>
      </trkpt>
      <trkpt lat="49.1841" lon="7.27335">
        <ele>392.7</ele>
        <time>2022-07-11T19:18:12Z</time>
      </trkpt>
      <trkpt lat="49.18414" lon="7.27349">
        <ele>392.6</ele>
        <time>2022-07-11T19:18:21Z</time>
      </trkpt>
      <trkpt lat="49.18411" lon="7.27364">
        <ele>392.4</ele>
        <time>2022-07-11T19:18:28Z</time>
      </trkpt>
      <trkpt lat="49.18405" lon="7.27374">
        <ele>392.2</ele>
        <time>2022-07-11T19:18:34Z</time>
      </trkpt>
      <trkpt lat="49.18401" lon="7.27389">
        <ele>392</ele>
        <time>2022-07-11T19:18:41Z</time>
      </trkpt>
      <trkpt lat="49.18398" lon="7.27403">
        <ele>391.8</ele>
        <time>2022-07-11T19:18:49Z</time>
      </trkpt>
      <trkpt lat="49.18398" lon="7.27418">
        <ele>391.5</ele>
        <time>2022-07-11T19:18:56Z</time>
      </trkpt>
      <trkpt lat="49.18398" lon="7.27433">
        <ele>391.3</ele>
        <time>2022-07-11T19:19:04Z</time>
      </trkpt>
      <trkpt lat="49.18399" lon="7.27439">
        <ele>391.2</ele>
        <time>2022-07-11T19:19:12Z</time>
      </trkpt>
      <trkpt lat="49.18399" lon="7.2744">
        <ele>391.1</ele>
        <time>2022-07-11T19:19:18Z</time>
      </trkpt>
      <trkpt lat="49.18399" lon="7.2744">
        <ele>391.1</ele>
        <time>2022-07-11T19:19:19Z</time>
      </trkpt>
      <trkpt lat="49.18399" lon="7.2744">
        <ele>391.1</ele>
        <time>2022-07-11T19:19:21Z</time>
      </trkpt>
      <trkpt lat="49.18398" lon="7.27456">
        <ele>390.9</ele>
        <time>2022-07-11T19:19:30Z</time>
      </trkpt>
      <trkpt lat="49.18394" lon="7.27469">
        <ele>390.7</ele>
        <time>2022-07-11T19:19:36Z</time>
      </trkpt>
      <trkpt lat="49.1839" lon="7.27482">
        <ele>390.4</ele>
        <time>2022-07-11T19:19:43Z</time>
      </trkpt>
      <trkpt lat="49.18383" lon="7.27493">
        <ele>390.1</ele>
        <time>2022-07-11T19:19:50Z</time>
      </trkpt>
      <trkpt lat="49.18379" lon="7.27502">
        <ele>389.9</ele>
        <time>2022-07-11T19:19:58Z</time>
      </trkpt>
      <trkpt lat="49.18378" lon="7.27502">
        <ele>389.9</ele>
        <time>2022-07-11T19:19:59Z</time>
      </trkpt>
      <trkpt lat="49.18369" lon="7.27509">
        <ele>389.5</ele>
        <time>2022-07-11T19:20:05Z</time>
      </trkpt>
      <trkpt lat="49.18361" lon="7.27515">
        <ele>389</ele>
        <time>2022-07-11T19:20:15Z</time>
      </trkpt>
      <trkpt lat="49.18352" lon="7.27521">
        <ele>388.5</ele>
        <time>2022-07-11T19:20:24Z</time>
      </trkpt>
      <trkpt lat="49.18342" lon="7.27525">
        <ele>388</ele>
        <time>2022-07-11T19:20:31Z</time>
      </trkpt>
      <trkpt lat="49.18335" lon="7.27534">
        <ele>387.5</ele>
        <time>2022-07-11T19:20:38Z</time>
      </trkpt>
      <trkpt lat="49.18327" lon="7.27541">
        <ele>387.1</ele>
        <time>2022-07-11T19:20:45Z</time>
      </trkpt>
      <trkpt lat="49.18318" lon="7.27548">
        <ele>386.7</ele>
        <time>2022-07-11T19:20:54Z</time>
      </trkpt>
      <trkpt lat="49.18309" lon="7.27556">
        <ele>386.3</ele>
        <time>2022-07-11T19:21:02Z</time>
      </trkpt>
      <trkpt lat="49.183" lon="7.27561">
        <ele>386</ele>
        <time>2022-07-11T19:21:10Z</time>
      </trkpt>
      <trkpt lat="49.18292" lon="7.27567">
        <ele>385.7</ele>
        <time>2022-07-11T19:21:18Z</time>
      </trkpt>
      <trkpt lat="49.18283" lon="7.27571">
        <ele>385.6</ele>
        <time>2022-07-11T19:21:25Z</time>
      </trkpt>
      <trkpt lat="49.18274" lon="7.27576">
        <ele>385.5</ele>
        <time>2022-07-11T19:21:33Z</time>
      </trkpt>
      <trkpt lat="49.18265" lon="7.27582">
        <ele>385.4</ele>
        <time>2022-07-11T19:21:40Z</time>
      </trkpt>
      <trkpt lat="49.18255" lon="7.27586">
        <ele>385.3</ele>
        <time>2022-07-11T19:21:49Z</time>
      </trkpt>
      <trkpt lat="49.18247" lon="7.27593">
        <ele>385.4</ele>
        <time>2022-07-11T19:21:56Z</time>
      </trkpt>
      <trkpt lat="49.18238" lon="7.27598">
        <ele>385.4</ele>
        <time>2022-07-11T19:22:03Z</time>
      </trkpt>
      <trkpt lat="49.18229" lon="7.27605">
        <ele>385.4</ele>
        <time>2022-07-11T19:22:10Z</time>
      </trkpt>
      <trkpt lat="49.1822" lon="7.2761">
        <ele>385.4</ele>
        <time>2022-07-11T19:22:17Z</time>
      </trkpt>
      <trkpt lat="49.18211" lon="7.27615">
        <ele>385.4</ele>
        <time>2022-07-11T19:22:25Z</time>
      </trkpt>
      <trkpt lat="49.18202" lon="7.27619">
        <ele>385.4</ele>
        <time>2022-07-11T19:22:31Z</time>
      </trkpt>
      <trkpt lat="49.18193" lon="7.27622">
        <ele>385.4</ele>
        <time>2022-07-11T19:22:36Z</time>
      </trkpt>
      <trkpt lat="49.18184" lon="7.27625">
        <ele>385.4</ele>
        <time>2022-07-11T19:22:43Z</time>
      </trkpt>
      <trkpt lat="49.18176" lon="7.27632">
        <ele>385.3</ele>
        <time>2022-07-11T19:22:52Z</time>
      </trkpt>
      <trkpt lat="49.18166" lon="7.27638">
        <ele>385.3</ele>
        <time>2022-07-11T19:22:59Z</time>
      </trkpt>
      <trkpt lat="49.18159" lon="7.27646">
        <ele>385.4</ele>
        <time>2022-07-11T19:23:06Z</time>
      </trkpt>
      <trkpt lat="49.1815" lon="7.27654">
        <ele>385.4</ele>
        <time>2022-07-11T19:23:15Z</time>
      </trkpt>
      <trkpt lat="49.18141" lon="7.27659">
        <ele>385.4</ele>
        <time>2022-07-11T19:23:23Z</time>
      </trkpt>
      <trkpt lat="49.18135" lon="7.27671">
        <ele>385.3</ele>
        <time>2022-07-11T19:23:35Z</time>
      </trkpt>
      <trkpt lat="49.18126" lon="7.27675">
        <ele>385.2</ele>
        <time>2022-07-11T19:23:40Z</time>
      </trkpt>
      <trkpt lat="49.18118" lon="7.2768">
        <ele>385.1</ele>
        <time>2022-07-11T19:23:47Z</time>
      </trkpt>
      <trkpt lat="49.18108" lon="7.27684">
        <ele>384.9</ele>
        <time>2022-07-11T19:23:55Z</time>
      </trkpt>
      <trkpt lat="49.18099" lon="7.2769">
        <ele>384.8</ele>
        <time>2022-07-11T19:24:02Z</time>
      </trkpt>
      <trkpt lat="49.1809" lon="7.27694">
        <ele>384.8</ele>
        <time>2022-07-11T19:24:10Z</time>
      </trkpt>
      <trkpt lat="49.18081" lon="7.27696">
        <ele>384.7</ele>
        <time>2022-07-11T19:24:17Z</time>
      </trkpt>
      <trkpt lat="49.18072" lon="7.27701">
        <ele>384.7</ele>
        <time>2022-07-11T19:24:25Z</time>
      </trkpt>
      <trkpt lat="49.18062" lon="7.27707">
        <ele>384.6</ele>
        <time>2022-07-11T19:24:34Z</time>
      </trkpt>
      <trkpt lat="49.18053" lon="7.27712">
        <ele>384.5</ele>
        <time>2022-07-11T19:24:42Z</time>
      </trkpt>
      <trkpt lat="49.18042" lon="7.2771">
        <ele>384.3</ele>
        <time>2022-07-11T19:24:48Z</time>
      </trkpt>
      <trkpt lat="49.18034" lon="7.27714">
        <ele>384.1</ele>
        <time>2022-07-11T19:24:55Z</time>
      </trkpt>
      <trkpt lat="49.18025" lon="7.27718">
        <ele>383.9</ele>
        <time>2022-07-11T19:25:02Z</time>
      </trkpt>
      <trkpt lat="49.18015" lon="7.27722">
        <ele>383.7</ele>
        <time>2022-07-11T19:25:11Z</time>
      </trkpt>
      <trkpt lat="49.18005" lon="7.27726">
        <ele>383.5</ele>
        <time>2022-07-11T19:25:20Z</time>
      </trkpt>
      <trkpt lat="49.17996" lon="7.27731">
        <ele>383.4</ele>
        <time>2022-07-11T19:25:27Z</time>
      </trkpt>
      <trkpt lat="49.17987" lon="7.27739">
        <ele>383.2</ele>
        <time>2022-07-11T19:25:38Z</time>
      </trkpt>
      <trkpt lat="49.17978" lon="7.27744">
        <ele>383</ele>
        <time>2022-07-11T19:25:46Z</time>
      </trkpt>
      <trkpt lat="49.17969" lon="7.27748">
        <ele>382.8</ele>
        <time>2022-07-11T19:25:55Z</time>
      </trkpt>
      <trkpt lat="49.17963" lon="7.27759">
        <ele>382.6</ele>
        <time>2022-07-11T19:26:02Z</time>
      </trkpt>
      <trkpt lat="49.17958" lon="7.27771">
        <ele>382.4</ele>
        <time>2022-07-11T19:26:08Z</time>
      </trkpt>
      <trkpt lat="49.17952" lon="7.27782">
        <ele>382.2</ele>
        <time>2022-07-11T19:26:13Z</time>
      </trkpt>
      <trkpt lat="49.17947" lon="7.27797">
        <ele>382.1</ele>
        <time>2022-07-11T19:26:20Z</time>
      </trkpt>
      <trkpt lat="49.17942" lon="7.27809">
        <ele>382</ele>
        <time>2022-07-11T19:26:26Z</time>
      </trkpt>
      <trkpt lat="49.1794" lon="7.27824">
        <ele>381.9</ele>
        <time>2022-07-11T19:26:35Z</time>
      </trkpt>
      <trkpt lat="49.17939" lon="7.27839">
        <ele>381.8</ele>
        <time>2022-07-11T19:26:41Z</time>
      </trkpt>
      <trkpt lat="49.17938" lon="7.27854">
        <ele>381.7</ele>
        <time>2022-07-11T19:26:49Z</time>
      </trkpt>
      <trkpt lat="49.17941" lon="7.27867">
        <ele>381.7</ele>
        <time>2022-07-11T19:26:56Z</time>
      </trkpt>
      <trkpt lat="49.17942" lon="7.27881">
        <ele>381.7</ele>
        <time>2022-07-11T19:27:02Z</time>
      </trkpt>
      <trkpt lat="49.17941" lon="7.27895">
        <ele>381.8</ele>
        <time>2022-07-11T19:27:10Z</time>
      </trkpt>
      <trkpt lat="49.17941" lon="7.27909">
        <ele>381.8</ele>
        <time>2022-07-11T19:27:18Z</time>
      </trkpt>
      <trkpt lat="49.17946" lon="7.27921">
        <ele>381.7</ele>
        <time>2022-07-11T19:27:25Z</time>
      </trkpt>
      <trkpt lat="49.17946" lon="7.27935">
        <ele>381.7</ele>
        <time>2022-07-11T19:27:33Z</time>
      </trkpt>
      <trkpt lat="49.1795" lon="7.2795">
        <ele>381.7</ele>
        <time>2022-07-11T19:27:41Z</time>
      </trkpt>
      <trkpt lat="49.17948" lon="7.27964">
        <ele>381.6</ele>
        <time>2022-07-11T19:27:47Z</time>
      </trkpt>
      <trkpt lat="49.17946" lon="7.27977">
        <ele>381.5</ele>
        <time>2022-07-11T19:27:55Z</time>
      </trkpt>
      <trkpt lat="49.17945" lon="7.27992">
        <ele>381.4</ele>
        <time>2022-07-11T19:28:03Z</time>
      </trkpt>
      <trkpt lat="49.17943" lon="7.28007">
        <ele>381.3</ele>
        <time>2022-07-11T19:28:10Z</time>
      </trkpt>
      <trkpt lat="49.17943" lon="7.28022">
        <ele>381.2</ele>
        <time>2022-07-11T19:28:18Z</time>
      </trkpt>
      <trkpt lat="49.17943" lon="7.28037">
        <ele>381</ele>
        <time>2022-07-11T19:28:26Z</time>
      </trkpt>
      <trkpt lat="49.17941" lon="7.28052">
        <ele>380.8</ele>
        <time>2022-07-11T19:28:34Z</time>
      </trkpt>
      <trkpt lat="49.17942" lon="7.28066">
        <ele>380.7</ele>
        <time>2022-07-11T19:28:42Z</time>
      </trkpt>
      <trkpt lat="49.1794" lon="7.28081">
        <ele>380.5</ele>
        <time>2022-07-11T19:28:51Z</time>
      </trkpt>
      <trkpt lat="49.17937" lon="7.28097">
        <ele>380.3</ele>
        <time>2022-07-11T19:28:59Z</time>
      </trkpt>
      <trkpt lat="49.17933" lon="7.2811">
        <ele>380.2</ele>
        <time>2022-07-11T19:29:04Z</time>
      </trkpt>
      <trkpt lat="49.1793" lon="7.28124">
        <ele>380</ele>
        <time>2022-07-11T19:29:12Z</time>
      </trkpt>
      <trkpt lat="49.17934" lon="7.28138">
        <ele>379.9</ele>
        <time>2022-07-11T19:29:20Z</time>
      </trkpt>
      <trkpt lat="49.17928" lon="7.28149">
        <ele>379.8</ele>
        <time>2022-07-11T19:29:26Z</time>
      </trkpt>
      <trkpt lat="49.17926" lon="7.28164">
        <ele>379.7</ele>
        <time>2022-07-11T19:29:34Z</time>
      </trkpt>
      <trkpt lat="49.17929" lon="7.28179">
        <ele>379.6</ele>
        <time>2022-07-11T19:29:42Z</time>
      </trkpt>
      <trkpt lat="49.17925" lon="7.28193">
        <ele>379.5</ele>
        <time>2022-07-11T19:29:50Z</time>
      </trkpt>
      <trkpt lat="49.1792" lon="7.28205">
        <ele>379.4</ele>
        <time>2022-07-11T19:30:04Z</time>
      </trkpt>
      <trkpt lat="49.1792" lon="7.28205">
        <ele>379.4</ele>
        <time>2022-07-11T19:30:07Z</time>
      </trkpt>
      <trkpt lat="49.1792" lon="7.28206">
        <ele>379.4</ele>
        <time>2022-07-11T19:30:08Z</time>
      </trkpt>
      <trkpt lat="49.17921" lon="7.28212">
        <ele>379.4</ele>
        <time>2022-07-11T19:30:21Z</time>
      </trkpt>
      <trkpt lat="49.17921" lon="7.28213">
        <ele>379.4</ele>
        <time>2022-07-11T19:30:22Z</time>
      </trkpt>
      <trkpt lat="49.17922" lon="7.28216">
        <ele>379.4</ele>
        <time>2022-07-11T19:30:33Z</time>
      </trkpt>
      <trkpt lat="49.17922" lon="7.28215">
        <ele>379.4</ele>
        <time>2022-07-11T19:30:38Z</time>
      </trkpt>
      <trkpt lat="49.17919" lon="7.28211">
        <ele>379.3</ele>
        <time>2022-07-11T19:31:17Z</time>
      </trkpt>
      <trkpt lat="49.17919" lon="7.28211">
        <ele>379.3</ele>
        <time>2022-07-11T19:31:18Z</time>
      </trkpt>
      <trkpt lat="49.17917" lon="7.28213">
        <ele>379.3</ele>
        <time>2022-07-11T19:31:27Z</time>
      </trkpt>
      <trkpt lat="49.17916" lon="7.28212">
        <ele>379.3</ele>
        <time>2022-07-11T19:31:29Z</time>
      </trkpt>
      <trkpt lat="49.17912" lon="7.282">
        <ele>379.2</ele>
        <time>2022-07-11T19:31:56Z</time>
      </trkpt>
      <trkpt lat="49.17911" lon="7.28199">
        <ele>379.2</ele>
        <time>2022-07-11T19:31:59Z</time>
      </trkpt>
      <trkpt lat="49.17912" lon="7.28198">
        <ele>379.2</ele>
        <time>2022-07-11T19:32:01Z</time>
      </trkpt>
      <trkpt lat="49.17913" lon="7.28198">
        <ele>379.2</ele>
        <time>2022-07-11T19:32:04Z</time>
      </trkpt>
      <trkpt lat="49.17914" lon="7.28198">
        <ele>379.2</ele>
        <time>2022-07-11T19:32:06Z</time>
      </trkpt>
      <trkpt lat="49.17914" lon="7.28198">
        <ele>379.2</ele>
        <time>2022-07-11T19:32:07Z</time>
      </trkpt>
      <trkpt lat="49.17914" lon="7.28198">
        <ele>379.2</ele>
        <time>2022-07-11T19:32:10Z</time>
      </trkpt>
      <trkpt lat="49.17923" lon="7.28196">
        <ele>379.1</ele>
        <time>2022-07-11T19:32:28Z</time>
      </trkpt>
      <trkpt lat="49.17925" lon="7.28211">
        <ele>379</ele>
        <time>2022-07-11T19:32:37Z</time>
      </trkpt>
      <trkpt lat="49.17922" lon="7.28225">
        <ele>378.9</ele>
        <time>2022-07-11T19:32:47Z</time>
      </trkpt>
      <trkpt lat="49.17919" lon="7.28239">
        <ele>378.8</ele>
        <time>2022-07-11T19:32:54Z</time>
      </trkpt>
      <trkpt lat="49.17916" lon="7.28253">
        <ele>378.7</ele>
        <time>2022-07-11T19:33:01Z</time>
      </trkpt>
      <trkpt lat="49.17914" lon="7.28267">
        <ele>378.5</ele>
        <time>2022-07-11T19:33:09Z</time>
      </trkpt>
      <trkpt lat="49.17913" lon="7.28282">
        <ele>378.3</ele>
        <time>2022-07-11T19:33:19Z</time>
      </trkpt>
      <trkpt lat="49.1791" lon="7.28297">
        <ele>378.2</ele>
        <time>2022-07-11T19:33:27Z</time>
      </trkpt>
      <trkpt lat="49.17909" lon="7.28312">
        <ele>378</ele>
        <time>2022-07-11T19:33:35Z</time>
      </trkpt>
      <trkpt lat="49.17909" lon="7.28327">
        <ele>377.7</ele>
        <time>2022-07-11T19:33:43Z</time>
      </trkpt>
      <trkpt lat="49.17906" lon="7.28342">
        <ele>377.3</ele>
        <time>2022-07-11T19:33:49Z</time>
      </trkpt>
      <trkpt lat="49.17905" lon="7.28356">
        <ele>376.9</ele>
        <time>2022-07-11T19:33:55Z</time>
      </trkpt>
      <trkpt lat="49.17903" lon="7.28364">
        <ele>376.6</ele>
        <time>2022-07-11T19:34:03Z</time>
      </trkpt>
      <trkpt lat="49.17904" lon="7.28365">
        <ele>376.6</ele>
        <time>2022-07-11T19:34:04Z</time>
      </trkpt>
      <trkpt lat="49.17904" lon="7.28365">
        <ele>376.6</ele>
        <time>2022-07-11T19:34:05Z</time>
      </trkpt>
      <trkpt lat="49.17904" lon="7.28365">
        <ele>376.6</ele>
        <time>2022-07-11T19:34:06Z</time>
      </trkpt>
      <trkpt lat="49.17905" lon="7.28364">
        <ele>376.6</ele>
        <time>2022-07-11T19:34:09Z</time>
      </trkpt>
      <trkpt lat="49.17905" lon="7.28364">
        <ele>376.5</ele>
        <time>2022-07-11T19:34:10Z</time>
      </trkpt>
      <trkpt lat="49.17904" lon="7.2838">
        <ele>376.1</ele>
        <time>2022-07-11T19:34:21Z</time>
      </trkpt>
      <trkpt lat="49.179" lon="7.28394">
        <ele>375.6</ele>
        <time>2022-07-11T19:34:30Z</time>
      </trkpt>
      <trkpt lat="49.17896" lon="7.28408">
        <ele>375.2</ele>
        <time>2022-07-11T19:34:37Z</time>
      </trkpt>
      <trkpt lat="49.17894" lon="7.28422">
        <ele>374.9</ele>
        <time>2022-07-11T19:34:47Z</time>
      </trkpt>
      <trkpt lat="49.1789" lon="7.28435">
        <ele>374.5</ele>
        <time>2022-07-11T19:34:54Z</time>
      </trkpt>
      <trkpt lat="49.17886" lon="7.28449">
        <ele>374.3</ele>
        <time>2022-07-11T19:35:03Z</time>
      </trkpt>
      <trkpt lat="49.17885" lon="7.28463">
        <ele>374.1</ele>
        <time>2022-07-11T19:35:11Z</time>
      </trkpt>
      <trkpt lat="49.17886" lon="7.28478">
        <ele>373.9</ele>
        <time>2022-07-11T19:35:20Z</time>
      </trkpt>
      <trkpt lat="49.17885" lon="7.28492">
        <ele>373.8</ele>
        <time>2022-07-11T19:35:27Z</time>
      </trkpt>
      <trkpt lat="49.17884" lon="7.28507">
        <ele>373.6</ele>
        <time>2022-07-11T19:35:37Z</time>
      </trkpt>
      <trkpt lat="49.17883" lon="7.28521">
        <ele>373.4</ele>
        <time>2022-07-11T19:35:45Z</time>
      </trkpt>
      <trkpt lat="49.17878" lon="7.28535">
        <ele>373.1</ele>
        <time>2022-07-11T19:35:52Z</time>
      </trkpt>
      <trkpt lat="49.17873" lon="7.28548">
        <ele>372.7</ele>
        <time>2022-07-11T19:35:59Z</time>
      </trkpt>
      <trkpt lat="49.17869" lon="7.28561">
        <ele>372.2</ele>
        <time>2022-07-11T19:36:09Z</time>
      </trkpt>
      <trkpt lat="49.17875" lon="7.28561">
        <ele>371.9</ele>
        <time>2022-07-11T19:36:23Z</time>
      </trkpt>
      <trkpt lat="49.17875" lon="7.28561">
        <ele>371.9</ele>
        <time>2022-07-11T19:36:24Z</time>
      </trkpt>
      <trkpt lat="49.17869" lon="7.28573">
        <ele>371.3</ele>
        <time>2022-07-11T19:36:37Z</time>
      </trkpt>
      <trkpt lat="49.17867" lon="7.28589">
        <ele>370.9</ele>
        <time>2022-07-11T19:36:44Z</time>
      </trkpt>
      <trkpt lat="49.17867" lon="7.28603">
        <ele>370.4</ele>
        <time>2022-07-11T19:36:52Z</time>
      </trkpt>
      <trkpt lat="49.17864" lon="7.28618">
        <ele>369.8</ele>
        <time>2022-07-11T19:36:59Z</time>
      </trkpt>
      <trkpt lat="49.17859" lon="7.2863">
        <ele>369.3</ele>
        <time>2022-07-11T19:37:06Z</time>
      </trkpt>
      <trkpt lat="49.17856" lon="7.28643">
        <ele>369</ele>
        <time>2022-07-11T19:37:14Z</time>
      </trkpt>
      <trkpt lat="49.17852" lon="7.28656">
        <ele>368.6</ele>
        <time>2022-07-11T19:37:22Z</time>
      </trkpt>
      <trkpt lat="49.17849" lon="7.28665">
        <ele>368.3</ele>
        <time>2022-07-11T19:37:30Z</time>
      </trkpt>
      <trkpt lat="49.17849" lon="7.28664">
        <ele>368.2</ele>
        <time>2022-07-11T19:37:32Z</time>
      </trkpt>
      <trkpt lat="49.17845" lon="7.28661">
        <ele>368</ele>
        <time>2022-07-11T19:37:40Z</time>
      </trkpt>
      <trkpt lat="49.17846" lon="7.28662">
        <ele>368</ele>
        <time>2022-07-11T19:37:43Z</time>
      </trkpt>
      <trkpt lat="49.17846" lon="7.28663">
        <ele>367.9</ele>
        <time>2022-07-11T19:37:48Z</time>
      </trkpt>
      <trkpt lat="49.17846" lon="7.28664">
        <ele>367.9</ele>
        <time>2022-07-11T19:37:55Z</time>
      </trkpt>
      <trkpt lat="49.17847" lon="7.28678">
        <ele>367.4</ele>
        <time>2022-07-11T19:38:04Z</time>
      </trkpt>
      <trkpt lat="49.17848" lon="7.28692">
        <ele>366.8</ele>
        <time>2022-07-11T19:38:12Z</time>
      </trkpt>
      <trkpt lat="49.17844" lon="7.28706">
        <ele>366.2</ele>
        <time>2022-07-11T19:38:20Z</time>
      </trkpt>
      <trkpt lat="49.17844" lon="7.2872">
        <ele>365.7</ele>
        <time>2022-07-11T19:38:27Z</time>
      </trkpt>
      <trkpt lat="49.17843" lon="7.28734">
        <ele>365.1</ele>
        <time>2022-07-11T19:38:34Z</time>
      </trkpt>
      <trkpt lat="49.17839" lon="7.28747">
        <ele>364.5</ele>
        <time>2022-07-11T19:38:41Z</time>
      </trkpt>
      <trkpt lat="49.17839" lon="7.28762">
        <ele>363.7</ele>
        <time>2022-07-11T19:38:51Z</time>
      </trkpt>
      <trkpt lat="49.17837" lon="7.28776">
        <ele>362.9</ele>
        <time>2022-07-11T19:38:58Z</time>
      </trkpt>
      <trkpt lat="49.17837" lon="7.2879">
        <ele>362</ele>
        <time>2022-07-11T19:39:05Z</time>
      </trkpt>
      <trkpt lat="49.17832" lon="7.28803">
        <ele>361.1</ele>
        <time>2022-07-11T19:39:12Z</time>
      </trkpt>
      <trkpt lat="49.1783" lon="7.28817">
        <ele>360.2</ele>
        <time>2022-07-11T19:39:19Z</time>
      </trkpt>
      <trkpt lat="49.17825" lon="7.28829">
        <ele>359.3</ele>
        <time>2022-07-11T19:39:26Z</time>
      </trkpt>
      <trkpt lat="49.17822" lon="7.28843">
        <ele>358.4</ele>
        <time>2022-07-11T19:39:34Z</time>
      </trkpt>
      <trkpt lat="49.17818" lon="7.28857">
        <ele>357.4</ele>
        <time>2022-07-11T19:39:43Z</time>
      </trkpt>
      <trkpt lat="49.17812" lon="7.2887">
        <ele>356.4</ele>
        <time>2022-07-11T19:39:52Z</time>
      </trkpt>
      <trkpt lat="49.17807" lon="7.28884">
        <ele>355.4</ele>
        <time>2022-07-11T19:40:00Z</time>
      </trkpt>
      <trkpt lat="49.178" lon="7.28897">
        <ele>354.5</ele>
        <time>2022-07-11T19:40:07Z</time>
      </trkpt>
      <trkpt lat="49.17795" lon="7.28909">
        <ele>353.7</ele>
        <time>2022-07-11T19:40:15Z</time>
      </trkpt>
      <trkpt lat="49.17792" lon="7.28923">
        <ele>353</ele>
        <time>2022-07-11T19:40:22Z</time>
      </trkpt>
      <trkpt lat="49.1779" lon="7.28939">
        <ele>352.3</ele>
        <time>2022-07-11T19:40:30Z</time>
      </trkpt>
      <trkpt lat="49.17787" lon="7.28953">
        <ele>351.6</ele>
        <time>2022-07-11T19:40:38Z</time>
      </trkpt>
      <trkpt lat="49.17786" lon="7.28967">
        <ele>351.1</ele>
        <time>2022-07-11T19:40:46Z</time>
      </trkpt>
      <trkpt lat="49.17782" lon="7.28979">
        <ele>350.5</ele>
        <time>2022-07-11T19:40:55Z</time>
      </trkpt>
      <trkpt lat="49.1778" lon="7.28994">
        <ele>349.9</ele>
        <time>2022-07-11T19:41:04Z</time>
      </trkpt>
      <trkpt lat="49.17778" lon="7.29008">
        <ele>349.4</ele>
        <time>2022-07-11T19:41:12Z</time>
      </trkpt>
      <trkpt lat="49.17775" lon="7.29023">
        <ele>348.9</ele>
        <time>2022-07-11T19:41:20Z</time>
      </trkpt>
      <trkpt lat="49.17775" lon="7.29038">
        <ele>348.3</ele>
        <time>2022-07-11T19:41:29Z</time>
      </trkpt>
      <trkpt lat="49.17778" lon="7.29051">
        <ele>347.8</ele>
        <time>2022-07-11T19:41:36Z</time>
      </trkpt>
      <trkpt lat="49.17783" lon="7.29063">
        <ele>347.1</ele>
        <time>2022-07-11T19:41:45Z</time>
      </trkpt>
      <trkpt lat="49.17791" lon="7.29072">
        <ele>346.4</ele>
        <time>2022-07-11T19:41:52Z</time>
      </trkpt>
      <trkpt lat="49.17799" lon="7.29079">
        <ele>345.6</ele>
        <time>2022-07-11T19:41:59Z</time>
      </trkpt>
      <trkpt lat="49.17808" lon="7.2908">
        <ele>344.7</ele>
        <time>2022-07-11T19:42:05Z</time>
      </trkpt>
      <trkpt lat="49.17815" lon="7.2907">
        <ele>343.7</ele>
        <time>2022-07-11T19:42:13Z</time>
      </trkpt>
      <trkpt lat="49.17821" lon="7.2906">
        <ele>343</ele>
        <time>2022-07-11T19:42:21Z</time>
      </trkpt>
      <trkpt lat="49.17829" lon="7.29049">
        <ele>342.2</ele>
        <time>2022-07-11T19:42:29Z</time>
      </trkpt>
      <trkpt lat="49.17836" lon="7.29039">
        <ele>341.3</ele>
        <time>2022-07-11T19:42:38Z</time>
      </trkpt>
      <trkpt lat="49.17844" lon="7.29029">
        <ele>340.4</ele>
        <time>2022-07-11T19:42:45Z</time>
      </trkpt>
      <trkpt lat="49.17851" lon="7.29021">
        <ele>339.4</ele>
        <time>2022-07-11T19:42:52Z</time>
      </trkpt>
      <trkpt lat="49.17858" lon="7.29009">
        <ele>338.4</ele>
        <time>2022-07-11T19:43:00Z</time>
      </trkpt>
      <trkpt lat="49.17864" lon="7.28998">
        <ele>337.3</ele>
        <time>2022-07-11T19:43:09Z</time>
      </trkpt>
      <trkpt lat="49.17871" lon="7.28989">
        <ele>336.2</ele>
        <time>2022-07-11T19:43:17Z</time>
      </trkpt>
      <trkpt lat="49.1788" lon="7.28983">
        <ele>335.1</ele>
        <time>2022-07-11T19:43:24Z</time>
      </trkpt>
      <trkpt lat="49.17887" lon="7.28975">
        <ele>334.1</ele>
        <time>2022-07-11T19:43:30Z</time>
      </trkpt>
      <trkpt lat="49.17896" lon="7.28967">
        <ele>333.1</ele>
        <time>2022-07-11T19:43:39Z</time>
      </trkpt>
      <trkpt lat="49.17903" lon="7.28958">
        <ele>332.2</ele>
        <time>2022-07-11T19:43:47Z</time>
      </trkpt>
      <trkpt lat="49.17911" lon="7.28949">
        <ele>331.4</ele>
        <time>2022-07-11T19:43:56Z</time>
      </trkpt>
      <trkpt lat="49.17917" lon="7.28938">
        <ele>330.6</ele>
        <time>2022-07-11T19:44:03Z</time>
      </trkpt>
      <trkpt lat="49.17925" lon="7.28928">
        <ele>329.8</ele>
        <time>2022-07-11T19:44:09Z</time>
      </trkpt>
      <trkpt lat="49.17934" lon="7.28923">
        <ele>329.1</ele>
        <time>2022-07-11T19:44:15Z</time>
      </trkpt>
      <trkpt lat="49.17942" lon="7.28916">
        <ele>328.5</ele>
        <time>2022-07-11T19:44:24Z</time>
      </trkpt>
      <trkpt lat="49.17949" lon="7.28905">
        <ele>327.9</ele>
        <time>2022-07-11T19:44:34Z</time>
      </trkpt>
      <trkpt lat="49.17958" lon="7.28903">
        <ele>327.4</ele>
        <time>2022-07-11T19:44:41Z</time>
      </trkpt>
      <trkpt lat="49.17966" lon="7.28894">
        <ele>326.9</ele>
        <time>2022-07-11T19:44:46Z</time>
      </trkpt>
      <trkpt lat="49.17973" lon="7.28884">
        <ele>326.6</ele>
        <time>2022-07-11T19:44:53Z</time>
      </trkpt>
      <trkpt lat="49.17982" lon="7.28878">
        <ele>326</ele>
        <time>2022-07-11T19:45:03Z</time>
      </trkpt>
      <trkpt lat="49.17991" lon="7.28882">
        <ele>325.3</ele>
        <time>2022-07-11T19:45:09Z</time>
      </trkpt>
      <trkpt lat="49.17994" lon="7.28896">
        <ele>324.5</ele>
        <time>2022-07-11T19:45:18Z</time>
      </trkpt>
      <trkpt lat="49.1799" lon="7.2891">
        <ele>323.6</ele>
        <time>2022-07-11T19:45:25Z</time>
      </trkpt>
      <trkpt lat="49.17983" lon="7.2892">
        <ele>322.9</ele>
        <time>2022-07-11T19:45:32Z</time>
      </trkpt>
      <trkpt lat="49.17979" lon="7.28933">
        <ele>322.3</ele>
        <time>2022-07-11T19:45:42Z</time>
      </trkpt>
      <trkpt lat="49.17977" lon="7.28943">
        <ele>321.8</ele>
        <time>2022-07-11T19:45:51Z</time>
      </trkpt>
      <trkpt lat="49.17977" lon="7.28943">
        <ele>321.8</ele>
        <time>2022-07-11T19:45:53Z</time>
      </trkpt>
      <trkpt lat="49.17977" lon="7.28943">
        <ele>321.8</ele>
        <time>2022-07-11T19:45:54Z</time>
      </trkpt>
      <trkpt lat="49.17977" lon="7.28944">
        <ele>321.8</ele>
        <time>2022-07-11T19:45:55Z</time>
      </trkpt>
      <trkpt lat="49.17974" lon="7.28957">
        <ele>321.2</ele>
        <time>2022-07-11T19:46:03Z</time>
      </trkpt>
      <trkpt lat="49.17974" lon="7.28972">
        <ele>320.6</ele>
        <time>2022-07-11T19:46:10Z</time>
      </trkpt>
      <trkpt lat="49.1797" lon="7.28986">
        <ele>320</ele>
        <time>2022-07-11T19:46:18Z</time>
      </trkpt>
      <trkpt lat="49.17969" lon="7.29">
        <ele>319.4</ele>
        <time>2022-07-11T19:46:25Z</time>
      </trkpt>
      <trkpt lat="49.17968" lon="7.29015">
        <ele>318.8</ele>
        <time>2022-07-11T19:46:33Z</time>
      </trkpt>
      <trkpt lat="49.17971" lon="7.29029">
        <ele>318.2</ele>
        <time>2022-07-11T19:46:40Z</time>
      </trkpt>
      <trkpt lat="49.17974" lon="7.29043">
        <ele>317.5</ele>
        <time>2022-07-11T19:46:47Z</time>
      </trkpt>
      <trkpt lat="49.1798" lon="7.29054">
        <ele>316.6</ele>
        <time>2022-07-11T19:46:54Z</time>
      </trkpt>
      <trkpt lat="49.17988" lon="7.29062">
        <ele>315.5</ele>
        <time>2022-07-11T19:47:02Z</time>
      </trkpt>
      <trkpt lat="49.17998" lon="7.29065">
        <ele>314.5</ele>
        <time>2022-07-11T19:47:10Z</time>
      </trkpt>
      <trkpt lat="49.18007" lon="7.29073">
        <ele>313.5</ele>
        <time>2022-07-11T19:47:18Z</time>
      </trkpt>
      <trkpt lat="49.18014" lon="7.29083">
        <ele>312.8</ele>
        <time>2022-07-11T19:47:25Z</time>
      </trkpt>
      <trkpt lat="49.18021" lon="7.2909">
        <ele>312.1</ele>
        <time>2022-07-11T19:47:33Z</time>
      </trkpt>
      <trkpt lat="49.18029" lon="7.29099">
        <ele>311.3</ele>
        <time>2022-07-11T19:47:42Z</time>
      </trkpt>
      <trkpt lat="49.18038" lon="7.29103">
        <ele>310.4</ele>
        <time>2022-07-11T19:47:49Z</time>
      </trkpt>
      <trkpt lat="49.18047" lon="7.29108">
        <ele>309.5</ele>
        <time>2022-07-11T19:47:56Z</time>
      </trkpt>
      <trkpt lat="49.18056" lon="7.29115">
        <ele>308.5</ele>
        <time>2022-07-11T19:48:04Z</time>
      </trkpt>
      <trkpt lat="49.18065" lon="7.2912">
        <ele>307.6</ele>
        <time>2022-07-11T19:48:10Z</time>
      </trkpt>
      <trkpt lat="49.18072" lon="7.2913">
        <ele>306.7</ele>
        <time>2022-07-11T19:48:16Z</time>
      </trkpt>
      <trkpt lat="49.18082" lon="7.29137">
        <ele>305.9</ele>
        <time>2022-07-11T19:48:24Z</time>
      </trkpt>
      <trkpt lat="49.18089" lon="7.29147">
        <ele>305.1</ele>
        <time>2022-07-11T19:48:32Z</time>
      </trkpt>
      <trkpt lat="49.18098" lon="7.29153">
        <ele>304.5</ele>
        <time>2022-07-11T19:48:41Z</time>
      </trkpt>
      <trkpt lat="49.18106" lon="7.29159">
        <ele>304</ele>
        <time>2022-07-11T19:48:49Z</time>
      </trkpt>
      <trkpt lat="49.18114" lon="7.29167">
        <ele>303.5</ele>
        <time>2022-07-11T19:48:57Z</time>
      </trkpt>
      <trkpt lat="49.18121" lon="7.29176">
        <ele>303.1</ele>
        <time>2022-07-11T19:49:04Z</time>
      </trkpt>
      <trkpt lat="49.18129" lon="7.29184">
        <ele>302.7</ele>
        <time>2022-07-11T19:49:12Z</time>
      </trkpt>
      <trkpt lat="49.18137" lon="7.29191">
        <ele>302.3</ele>
        <time>2022-07-11T19:49:18Z</time>
      </trkpt>
      <trkpt lat="49.18145" lon="7.292">
        <ele>301.9</ele>
        <time>2022-07-11T19:49:26Z</time>
      </trkpt>
      <trkpt lat="49.18153" lon="7.29207">
        <ele>301.6</ele>
        <time>2022-07-11T19:49:35Z</time>
      </trkpt>
      <trkpt lat="49.18162" lon="7.29214">
        <ele>301.2</ele>
        <time>2022-07-11T19:49:42Z</time>
      </trkpt>
      <trkpt lat="49.18171" lon="7.29221">
        <ele>300.9</ele>
        <time>2022-07-11T19:49:50Z</time>
      </trkpt>
      <trkpt lat="49.1818" lon="7.29224">
        <ele>300.7</ele>
        <time>2022-07-11T19:49:58Z</time>
      </trkpt>
      <trkpt lat="49.18188" lon="7.2923">
        <ele>300.9</ele>
        <time>2022-07-11T19:50:14Z</time>
      </trkpt>
      <trkpt lat="49.18195" lon="7.29221">
        <ele>301</ele>
        <time>2022-07-11T19:50:44Z</time>
      </trkpt>
      <trkpt lat="49.18189" lon="7.2921">
        <ele>301.3</ele>
        <time>2022-07-11T19:51:02Z</time>
      </trkpt>
      <trkpt lat="49.18198" lon="7.29205">
        <ele>301.5</ele>
        <time>2022-07-11T19:51:26Z</time>
      </trkpt>
      <trkpt lat="49.18202" lon="7.29192">
        <ele>301.9</ele>
        <time>2022-07-11T19:51:43Z</time>
      </trkpt>
      <trkpt lat="49.18199" lon="7.29178">
        <ele>302.1</ele>
        <time>2022-07-11T19:51:53Z</time>
      </trkpt>
      <trkpt lat="49.18191" lon="7.29169">
        <ele>302.4</ele>
        <time>2022-07-11T19:52:00Z</time>
      </trkpt>
      <trkpt lat="49.18187" lon="7.29156">
        <ele>302.6</ele>
        <time>2022-07-11T19:52:08Z</time>
      </trkpt>
      <trkpt lat="49.18186" lon="7.29142">
        <ele>302.8</ele>
        <time>2022-07-11T19:52:16Z</time>
      </trkpt>
      <trkpt lat="49.18189" lon="7.29128">
        <ele>303.1</ele>
        <time>2022-07-11T19:52:33Z</time>
      </trkpt>
      <trkpt lat="49.18198" lon="7.29131">
        <ele>303.3</ele>
        <time>2022-07-11T19:52:42Z</time>
      </trkpt>
      <trkpt lat="49.182" lon="7.29146">
        <ele>303.1</ele>
        <time>2022-07-11T19:52:49Z</time>
      </trkpt>
      <trkpt lat="49.18203" lon="7.2916">
        <ele>302.8</ele>
        <time>2022-07-11T19:52:59Z</time>
      </trkpt>
      <trkpt lat="49.18198" lon="7.29176">
        <ele>302.4</ele>
        <time>2022-07-11T19:53:01Z</time>
      </trkpt>
      <trkpt lat="49.18196" lon="7.29191">
        <ele>302.1</ele>
        <time>2022-07-11T19:53:16Z</time>
      </trkpt>
      <trkpt lat="49.18191" lon="7.29205">
        <ele>301.7</ele>
        <time>2022-07-11T19:53:24Z</time>
      </trkpt>
      <trkpt lat="49.18186" lon="7.29218">
        <ele>301.6</ele>
        <time>2022-07-11T19:53:28Z</time>
      </trkpt>
      <trkpt lat="49.1819" lon="7.29216">
        <ele>301.6</ele>
        <time>2022-07-11T19:53:33Z</time>
      </trkpt>
      <trkpt lat="49.18191" lon="7.29213">
        <ele>301.6</ele>
        <time>2022-07-11T19:53:34Z</time>
      </trkpt>
      <trkpt lat="49.18201" lon="7.29216">
        <ele>301.3</ele>
        <time>2022-07-11T19:53:50Z</time>
      </trkpt>
      <trkpt lat="49.18213" lon="7.29218">
        <ele>301.2</ele>
        <time>2022-07-11T19:53:54Z</time>
      </trkpt>
      <trkpt lat="49.18225" lon="7.29219">
        <ele>301.1</ele>
        <time>2022-07-11T19:54:02Z</time>
      </trkpt>
      <trkpt lat="49.18232" lon="7.29206">
        <ele>301.2</ele>
        <time>2022-07-11T19:54:05Z</time>
      </trkpt>
      <trkpt lat="49.18241" lon="7.29193">
        <ele>301.3</ele>
        <time>2022-07-11T19:54:07Z</time>
      </trkpt>
      <trkpt lat="49.18249" lon="7.29199">
        <ele>301.4</ele>
        <time>2022-07-11T19:54:14Z</time>
      </trkpt>
      <trkpt lat="49.18254" lon="7.29201">
        <ele>301.4</ele>
        <time>2022-07-11T19:54:18Z</time>
      </trkpt>
      <trkpt lat="49.18257" lon="7.29201">
        <ele>301.4</ele>
        <time>2022-07-11T19:54:19Z</time>
      </trkpt>
      <trkpt lat="49.18268" lon="7.292">
        <ele>301.5</ele>
        <time>2022-07-11T19:54:23Z</time>
      </trkpt>
      <trkpt lat="49.18268" lon="7.29204">
        <ele>301.6</ele>
        <time>2022-07-11T19:54:27Z</time>
      </trkpt>
      <trkpt lat="49.18268" lon="7.29205">
        <ele>301.6</ele>
        <time>2022-07-11T19:54:28Z</time>
      </trkpt>
      <trkpt lat="49.18277" lon="7.29202">
        <ele>301.6</ele>
        <time>2022-07-11T19:54:38Z</time>
      </trkpt>
      <trkpt lat="49.18285" lon="7.29195">
        <ele>301.6</ele>
        <time>2022-07-11T19:54:52Z</time>
      </trkpt>
      <trkpt lat="49.18293" lon="7.29187">
        <ele>301.7</ele>
        <time>2022-07-11T19:55:02Z</time>
      </trkpt>
      <trkpt lat="49.18304" lon="7.29184">
        <ele>301.6</ele>
        <time>2022-07-11T19:55:15Z</time>
      </trkpt>
      <trkpt lat="49.18313" lon="7.29181">
        <ele>301.6</ele>
        <time>2022-07-11T19:55:22Z</time>
      </trkpt>
      <trkpt lat="49.18325" lon="7.2918">
        <ele>301.6</ele>
        <time>2022-07-11T19:55:27Z</time>
      </trkpt>
      <trkpt lat="49.18334" lon="7.29184">
        <ele>301.5</ele>
        <time>2022-07-11T19:55:31Z</time>
      </trkpt>
      <trkpt lat="49.18343" lon="7.29175">
        <ele>301.4</ele>
        <time>2022-07-11T19:55:41Z</time>
      </trkpt>
      <trkpt lat="49.1835" lon="7.29165">
        <ele>301.2</ele>
        <time>2022-07-11T19:55:46Z</time>
      </trkpt>
      <trkpt lat="49.18359" lon="7.29157">
        <ele>301.2</ele>
        <time>2022-07-11T19:55:51Z</time>
      </trkpt>
      <trkpt lat="49.18366" lon="7.29148">
        <ele>301.1</ele>
        <time>2022-07-11T19:56:08Z</time>
      </trkpt>
      <trkpt lat="49.18372" lon="7.29136">
        <ele>300.9</ele>
        <time>2022-07-11T19:56:16Z</time>
      </trkpt>
      <trkpt lat="49.18381" lon="7.29133">
        <ele>300.7</ele>
        <time>2022-07-11T19:56:23Z</time>
      </trkpt>
      <trkpt lat="49.18391" lon="7.29136">
        <ele>300.5</ele>
        <time>2022-07-11T19:56:30Z</time>
      </trkpt>
      <trkpt lat="49.184" lon="7.2913">
        <ele>300.3</ele>
        <time>2022-07-11T19:56:37Z</time>
      </trkpt>
      <trkpt lat="49.1841" lon="7.29127">
        <ele>300.1</ele>
        <time>2022-07-11T19:56:42Z</time>
      </trkpt>
      <trkpt lat="49.18419" lon="7.29124">
        <ele>299.9</ele>
        <time>2022-07-11T19:56:49Z</time>
      </trkpt>
      <trkpt lat="49.18421" lon="7.29109">
        <ele>299.7</ele>
        <time>2022-07-11T19:56:56Z</time>
      </trkpt>
      <trkpt lat="49.18427" lon="7.29096">
        <ele>299.7</ele>
        <time>2022-07-11T19:57:06Z</time>
      </trkpt>
      <trkpt lat="49.18436" lon="7.29099">
        <ele>299.6</ele>
        <time>2022-07-11T19:57:21Z</time>
      </trkpt>
      <trkpt lat="49.18444" lon="7.2909">
        <ele>299.6</ele>
        <time>2022-07-11T19:57:27Z</time>
      </trkpt>
      <trkpt lat="49.18448" lon="7.29077">
        <ele>299.6</ele>
        <time>2022-07-11T19:57:32Z</time>
      </trkpt>
      <trkpt lat="49.18449" lon="7.29063">
        <ele>299.5</ele>
        <time>2022-07-11T19:57:37Z</time>
      </trkpt>
      <trkpt lat="49.18458" lon="7.29066">
        <ele>299.6</ele>
        <time>2022-07-11T19:57:54Z</time>
      </trkpt>
      <trkpt lat="49.18468" lon="7.2906">
        <ele>299.6</ele>
        <time>2022-07-11T19:58:00Z</time>
      </trkpt>
      <trkpt lat="49.1848" lon="7.29063">
        <ele>299.7</ele>
        <time>2022-07-11T19:58:02Z</time>
      </trkpt>
      <trkpt lat="49.1849" lon="7.29067">
        <ele>299.9</ele>
        <time>2022-07-11T19:58:05Z</time>
      </trkpt>
      <trkpt lat="49.18499" lon="7.29072">
        <ele>300</ele>
        <time>2022-07-11T19:58:09Z</time>
      </trkpt>
      <trkpt lat="49.18508" lon="7.29075">
        <ele>300.2</ele>
        <time>2022-07-11T19:58:16Z</time>
      </trkpt>
      <trkpt lat="49.18518" lon="7.29073">
        <ele>300.5</ele>
        <time>2022-07-11T19:58:21Z</time>
      </trkpt>
      <trkpt lat="49.18528" lon="7.29074">
        <ele>300.8</ele>
        <time>2022-07-11T19:58:25Z</time>
      </trkpt>
      <trkpt lat="49.18539" lon="7.29075">
        <ele>301.1</ele>
        <time>2022-07-11T19:58:30Z</time>
      </trkpt>
      <trkpt lat="49.18549" lon="7.2908">
        <ele>301.5</ele>
        <time>2022-07-11T19:58:44Z</time>
      </trkpt>
      <trkpt lat="49.18558" lon="7.29084">
        <ele>302.6</ele>
        <time>2022-07-11T19:58:53Z</time>
      </trkpt>
      <trkpt lat="49.18567" lon="7.29083">
        <ele>303.4</ele>
        <time>2022-07-11T19:59:03Z</time>
      </trkpt>
      <trkpt lat="49.1857" lon="7.29082">
        <ele>303.5</ele>
        <time>2022-07-11T19:59:06Z</time>
      </trkpt>
      <trkpt lat="49.18571" lon="7.29083">
        <ele>303.5</ele>
        <time>2022-07-11T19:59:07Z</time>
      </trkpt>
      <trkpt lat="49.18579" lon="7.2909">
        <ele>303.8</ele>
        <time>2022-07-11T19:59:15Z</time>
      </trkpt>
      <trkpt lat="49.18589" lon="7.29089">
        <ele>304.1</ele>
        <time>2022-07-11T19:59:22Z</time>
      </trkpt>
      <trkpt lat="49.18596" lon="7.29099">
        <ele>304.4</ele>
        <time>2022-07-11T19:59:29Z</time>
      </trkpt>
      <trkpt lat="49.18603" lon="7.2911">
        <ele>304.7</ele>
        <time>2022-07-11T19:59:38Z</time>
      </trkpt>
      <trkpt lat="49.18612" lon="7.29117">
        <ele>305</ele>
        <time>2022-07-11T19:59:51Z</time>
      </trkpt>
      <trkpt lat="49.18614" lon="7.29102">
        <ele>305.3</ele>
        <time>2022-07-11T20:00:01Z</time>
      </trkpt>
      <trkpt lat="49.18616" lon="7.29087">
        <ele>305.6</ele>
        <time>2022-07-11T20:00:08Z</time>
      </trkpt>
      <trkpt lat="49.18623" lon="7.29097">
        <ele>306</ele>
        <time>2022-07-11T20:00:18Z</time>
      </trkpt>
      <trkpt lat="49.18631" lon="7.29105">
        <ele>306.1</ele>
        <time>2022-07-11T20:00:29Z</time>
      </trkpt>
      <trkpt lat="49.18639" lon="7.29112">
        <ele>306.3</ele>
        <time>2022-07-11T20:00:37Z</time>
      </trkpt>
      <trkpt lat="49.18648" lon="7.29112">
        <ele>306.4</ele>
        <time>2022-07-11T20:00:44Z</time>
      </trkpt>
      <trkpt lat="49.18658" lon="7.29113">
        <ele>306.6</ele>
        <time>2022-07-11T20:00:51Z</time>
      </trkpt>
      <trkpt lat="49.18665" lon="7.29121">
        <ele>306.6</ele>
        <time>2022-07-11T20:00:59Z</time>
      </trkpt>
      <trkpt lat="49.18662" lon="7.29135">
        <ele>306.6</ele>
        <time>2022-07-11T20:01:16Z</time>
      </trkpt>
      <trkpt lat="49.18671" lon="7.29137">
        <ele>306.6</ele>
        <time>2022-07-11T20:01:23Z</time>
      </trkpt>
      <trkpt lat="49.18666" lon="7.29149">
        <ele>306.6</ele>
        <time>2022-07-11T20:01:33Z</time>
      </trkpt>
      <trkpt lat="49.18664" lon="7.29164">
        <ele>306.6</ele>
        <time>2022-07-11T20:01:41Z</time>
      </trkpt>
      <trkpt lat="49.1866" lon="7.29177">
        <ele>306.6</ele>
        <time>2022-07-11T20:01:50Z</time>
      </trkpt>
      <trkpt lat="49.18659" lon="7.29192">
        <ele>306.6</ele>
        <time>2022-07-11T20:02:01Z</time>
      </trkpt>
      <trkpt lat="49.18665" lon="7.29204">
        <ele>307</ele>
        <time>2022-07-11T20:02:08Z</time>
      </trkpt>
      <trkpt lat="49.18674" lon="7.29205">
        <ele>307.3</ele>
        <time>2022-07-11T20:02:17Z</time>
      </trkpt>
      <trkpt lat="49.18684" lon="7.29207">
        <ele>307.6</ele>
        <time>2022-07-11T20:02:25Z</time>
      </trkpt>
      <trkpt lat="49.18692" lon="7.29212">
        <ele>307.9</ele>
        <time>2022-07-11T20:02:30Z</time>
      </trkpt>
      <trkpt lat="49.18702" lon="7.29215">
        <ele>308.2</ele>
        <time>2022-07-11T20:02:38Z</time>
      </trkpt>
      <trkpt lat="49.18711" lon="7.29216">
        <ele>308.5</ele>
        <time>2022-07-11T20:02:44Z</time>
      </trkpt>
      <trkpt lat="49.18722" lon="7.29218">
        <ele>308.7</ele>
        <time>2022-07-11T20:02:50Z</time>
      </trkpt>
      <trkpt lat="49.18732" lon="7.2922">
        <ele>309</ele>
        <time>2022-07-11T20:02:59Z</time>
      </trkpt>
      <trkpt lat="49.1874" lon="7.29231">
        <ele>309.2</ele>
        <time>2022-07-11T20:03:06Z</time>
      </trkpt>
      <trkpt lat="49.18748" lon="7.29238">
        <ele>309.4</ele>
        <time>2022-07-11T20:03:14Z</time>
      </trkpt>
      <trkpt lat="49.18758" lon="7.29241">
        <ele>309.7</ele>
        <time>2022-07-11T20:03:20Z</time>
      </trkpt>
      <trkpt lat="49.18767" lon="7.29241">
        <ele>309.9</ele>
        <time>2022-07-11T20:03:25Z</time>
      </trkpt>
      <trkpt lat="49.18779" lon="7.29243">
        <ele>310.1</ele>
        <time>2022-07-11T20:03:31Z</time>
      </trkpt>
      <trkpt lat="49.18788" lon="7.29246">
        <ele>310.4</ele>
        <time>2022-07-11T20:03:36Z</time>
      </trkpt>
      <trkpt lat="49.18796" lon="7.29251">
        <ele>310.6</ele>
        <time>2022-07-11T20:03:46Z</time>
      </trkpt>
      <trkpt lat="49.18806" lon="7.29254">
        <ele>310.9</ele>
        <time>2022-07-11T20:03:57Z</time>
      </trkpt>
      <trkpt lat="49.18816" lon="7.29258">
        <ele>311.1</ele>
        <time>2022-07-11T20:04:02Z</time>
      </trkpt>
      <trkpt lat="49.18824" lon="7.29264">
        <ele>311.4</ele>
        <time>2022-07-11T20:04:10Z</time>
      </trkpt>
      <trkpt lat="49.18832" lon="7.29268">
        <ele>311.6</ele>
        <time>2022-07-11T20:04:16Z</time>
      </trkpt>
      <trkpt lat="49.18842" lon="7.29275">
        <ele>311.9</ele>
        <time>2022-07-11T20:04:25Z</time>
      </trkpt>
      <trkpt lat="49.18851" lon="7.29274">
        <ele>312.1</ele>
        <time>2022-07-11T20:04:32Z</time>
      </trkpt>
      <trkpt lat="49.18861" lon="7.29276">
        <ele>312.3</ele>
        <time>2022-07-11T20:04:38Z</time>
      </trkpt>
      <trkpt lat="49.18869" lon="7.2928">
        <ele>312.5</ele>
        <time>2022-07-11T20:04:48Z</time>
      </trkpt>
      <trkpt lat="49.18879" lon="7.29283">
        <ele>312.7</ele>
        <time>2022-07-11T20:04:56Z</time>
      </trkpt>
      <trkpt lat="49.18889" lon="7.29283">
        <ele>312.9</ele>
        <time>2022-07-11T20:05:03Z</time>
      </trkpt>
      <trkpt lat="49.18897" lon="7.29291">
        <ele>313</ele>
        <time>2022-07-11T20:05:11Z</time>
      </trkpt>
      <trkpt lat="49.18905" lon="7.29297">
        <ele>313.2</ele>
        <time>2022-07-11T20:05:17Z</time>
      </trkpt>
      <trkpt lat="49.18914" lon="7.29303">
        <ele>313.3</ele>
        <time>2022-07-11T20:05:24Z</time>
      </trkpt>
      <trkpt lat="49.18924" lon="7.29307">
        <ele>313.5</ele>
        <time>2022-07-11T20:05:32Z</time>
      </trkpt>
      <trkpt lat="49.18933" lon="7.2931">
        <ele>313.6</ele>
        <time>2022-07-11T20:05:40Z</time>
      </trkpt>
      <trkpt lat="49.18942" lon="7.29316">
        <ele>313.7</ele>
        <time>2022-07-11T20:05:49Z</time>
      </trkpt>
      <trkpt lat="49.18951" lon="7.2932">
        <ele>313.9</ele>
        <time>2022-07-11T20:05:56Z</time>
      </trkpt>
      <trkpt lat="49.18961" lon="7.29321">
        <ele>314</ele>
        <time>2022-07-11T20:06:02Z</time>
      </trkpt>
      <trkpt lat="49.1897" lon="7.29324">
        <ele>314.1</ele>
        <time>2022-07-11T20:06:08Z</time>
      </trkpt>
      <trkpt lat="49.1898" lon="7.29325">
        <ele>314.3</ele>
        <time>2022-07-11T20:06:16Z</time>
      </trkpt>
      <trkpt lat="49.18989" lon="7.29325">
        <ele>314.4</ele>
        <time>2022-07-11T20:06:21Z</time>
      </trkpt>
      <trkpt lat="49.18998" lon="7.29327">
        <ele>314.6</ele>
        <time>2022-07-11T20:06:26Z</time>
      </trkpt>
      <trkpt lat="49.19007" lon="7.2933">
        <ele>314.7</ele>
        <time>2022-07-11T20:06:35Z</time>
      </trkpt>
      <trkpt lat="49.19017" lon="7.29331">
        <ele>314.9</ele>
        <time>2022-07-11T20:06:41Z</time>
      </trkpt>
      <trkpt lat="49.19028" lon="7.29333">
        <ele>315.1</ele>
        <time>2022-07-11T20:06:48Z</time>
      </trkpt>
      <trkpt lat="49.19038" lon="7.29334">
        <ele>315.3</ele>
        <time>2022-07-11T20:06:57Z</time>
      </trkpt>
      <trkpt lat="49.19047" lon="7.29336">
        <ele>315.5</ele>
        <time>2022-07-11T20:07:05Z</time>
      </trkpt>
      <trkpt lat="49.19057" lon="7.29337">
        <ele>315.7</ele>
        <time>2022-07-11T20:07:13Z</time>
      </trkpt>
      <trkpt lat="49.19066" lon="7.29339">
        <ele>315.9</ele>
        <time>2022-07-11T20:07:19Z</time>
      </trkpt>
      <trkpt lat="49.19075" lon="7.2934">
        <ele>316</ele>
        <time>2022-07-11T20:07:24Z</time>
      </trkpt>
      <trkpt lat="49.19085" lon="7.29347">
        <ele>315.9</ele>
        <time>2022-07-11T20:07:31Z</time>
      </trkpt>
      <trkpt lat="49.19086" lon="7.29348">
        <ele>315.9</ele>
        <time>2022-07-11T20:07:39Z</time>
      </trkpt>
      <trkpt lat="49.19086" lon="7.29349">
        <ele>315.9</ele>
        <time>2022-07-11T20:07:55Z</time>
      </trkpt>
      <trkpt lat="49.19087" lon="7.2935">
        <ele>315.9</ele>
        <time>2022-07-11T20:08:13Z</time>
      </trkpt>
      <trkpt lat="49.19088" lon="7.29351">
        <ele>315.9</ele>
        <time>2022-07-11T20:08:14Z</time>
      </trkpt>
      <trkpt lat="49.19088" lon="7.29352">
        <ele>315.9</ele>
        <time>2022-07-11T20:08:19Z</time>
      </trkpt>
      <trkpt lat="49.19089" lon="7.29353">
        <ele>315.9</ele>
        <time>2022-07-11T20:08:19Z</time>
      </trkpt>
    </trkseg>
  </trk>
</gpx>